<?xml version='1.0' encoding='utf-8'?>
<gpx xmlns="http://www.topografix.com/GPX/1/1" xmlns:xsi="http://www.w3.org/2001/XMLSchema-instance" version="v1.1.5" creator="iTravel Tech Inc. - http://www.itravel-tech.com" xsi:schemaLocation="http://www.topografix.com/GPX/1/1 http://www.topografix.com/GPX/1/1/gpx.xsd http://www.topografix.com/GPX/gpx_overlay/0/3 http://www.topografix.com/GPX/gpx_overlay/0/3/gpx_overlay.xsd http://www.topografix.com/GPX/gpx_modified/0/1 http://www.topografix.com/GPX/gpx_modified/0/1/gpx_modified.xsd">
<trk>
<name>Holux2012/04/30_14:02</name>
<trkseg>
<trkpt lat="42.956818" lon="19.577368">
<ele>809.2</ele>
<time>2012-04-30T11:02:52Z</time>
<desc>lat.=42.956818, lon.=19.577368, Alt.=843.961426m. Speed=21.096001m/h.</desc>
<speed>5.860000</speed>
</trkpt>
<trkpt lat="42.955139" lon="19.575642">
<ele>804.0</ele>
<time>2012-04-30T11:03:32Z</time>
<desc>lat.=42.955139, lon.=19.575642, Alt.=833.648926m. Speed=22.176001m/h.</desc>
<speed>6.160000</speed>
</trkpt>
<trkpt lat="42.953495" lon="19.574648">
<ele>815.3</ele>
<time>2012-04-30T11:04:07Z</time>
<desc>lat.=42.953495, lon.=19.574648, Alt.=824.414551m. Speed=16.416000m/h.</desc>
<speed>4.560000</speed>
</trkpt>
<trkpt lat="42.953106" lon="19.574001">
<ele>817.3</ele>
<time>2012-04-30T11:04:22Z</time>
<desc>lat.=42.953106, lon.=19.574001, Alt.=829.789551m. Speed=13.896000m/h.</desc>
<speed>3.860000</speed>
</trkpt>
<trkpt lat="42.952599" lon="19.572327">
<ele>822.7</ele>
<time>2012-04-30T11:04:57Z</time>
<desc>lat.=42.952599, lon.=19.572327, Alt.=844.117676m. Speed=16.955999m/h.</desc>
<speed>4.710000</speed>
</trkpt>
<trkpt lat="42.952114" lon="19.571779">
<ele>824.3</ele>
<time>2012-04-30T11:05:12Z</time>
<desc>lat.=42.952114, lon.=19.571779, Alt.=844.602051m. Speed=18.648001m/h.</desc>
<speed>5.180000</speed>
</trkpt>
<trkpt lat="42.951427" lon="19.571480">
<ele>824.0</ele>
<time>2012-04-30T11:05:27Z</time>
<desc>lat.=42.951427, lon.=19.571480, Alt.=848.148926m. Speed=17.388000m/h.</desc>
<speed>4.830000</speed>
</trkpt>
<trkpt lat="42.950535" lon="19.571730">
<ele>825.4</ele>
<time>2012-04-30T11:05:42Z</time>
<desc>lat.=42.950535, lon.=19.571730, Alt.=851.367676m. Speed=25.775999m/h.</desc>
<speed>7.160000</speed>
</trkpt>
<trkpt lat="42.950020" lon="19.572180">
<ele>825.7</ele>
<time>2012-04-30T11:05:52Z</time>
<desc>lat.=42.950020, lon.=19.572180, Alt.=846.430176m. Speed=26.316000m/h.</desc>
<speed>7.310000</speed>
</trkpt>
<trkpt lat="42.948536" lon="19.574759">
<ele>824.8</ele>
<time>2012-04-30T11:06:32Z</time>
<desc>lat.=42.948536, lon.=19.574759, Alt.=837.461426m. Speed=22.860001m/h.</desc>
<speed>6.350000</speed>
</trkpt>
<trkpt lat="42.946693" lon="19.577185">
<ele>825.9</ele>
<time>2012-04-30T11:07:17Z</time>
<desc>lat.=42.946693, lon.=19.577185, Alt.=830.320801m. Speed=22.212000m/h.</desc>
<speed>6.170000</speed>
</trkpt>
<trkpt lat="42.945961" lon="19.577785">
<ele>825.3</ele>
<time>2012-04-30T11:07:32Z</time>
<desc>lat.=42.945961, lon.=19.577785, Alt.=830.977051m. Speed=22.823999m/h.</desc>
<speed>6.340000</speed>
</trkpt>
<trkpt lat="42.945057" lon="19.578093">
<ele>821.6</ele>
<time>2012-04-30T11:07:47Z</time>
<desc>lat.=42.945057, lon.=19.578093, Alt.=830.039551m. Speed=23.796000m/h.</desc>
<speed>6.610000</speed>
</trkpt>
<trkpt lat="42.943909" lon="19.577854">
<ele>811.3</ele>
<time>2012-04-30T11:08:07Z</time>
<desc>lat.=42.943909, lon.=19.577854, Alt.=827.352051m. Speed=28.044001m/h.</desc>
<speed>7.790000</speed>
</trkpt>
<trkpt lat="42.941303" lon="19.575876">
<ele>820.9</ele>
<time>2012-04-30T11:08:47Z</time>
<desc>lat.=42.941303, lon.=19.575876, Alt.=830.695801m. Speed=28.332001m/h.</desc>
<speed>7.870000</speed>
</trkpt>
<trkpt lat="42.940590" lon="19.575710">
<ele>821.7</ele>
<time>2012-04-30T11:08:57Z</time>
<desc>lat.=42.940590, lon.=19.575710, Alt.=829.180176m. Speed=30.240000m/h.</desc>
<speed>8.400000</speed>
</trkpt>
<trkpt lat="42.939327" lon="19.575932">
<ele>815.5</ele>
<time>2012-04-30T11:09:12Z</time>
<desc>lat.=42.939327, lon.=19.575932, Alt.=823.961426m. Speed=34.344002m/h.</desc>
<speed>9.540000</speed>
</trkpt>
<trkpt lat="42.938934" lon="19.575830">
<ele>815.4</ele>
<time>2012-04-30T11:09:17Z</time>
<desc>lat.=42.938934, lon.=19.575830, Alt.=823.336426m. Speed=31.356001m/h.</desc>
<speed>8.710000</speed>
</trkpt>
<trkpt lat="42.938129" lon="19.574951">
<ele>816.1</ele>
<time>2012-04-30T11:09:32Z</time>
<desc>lat.=42.938129, lon.=19.574951, Alt.=832.398926m. Speed=25.524000m/h.</desc>
<speed>7.090000</speed>
</trkpt>
<trkpt lat="42.936382" lon="19.572237">
<ele>818.8</ele>
<time>2012-04-30T11:10:12Z</time>
<desc>lat.=42.936382, lon.=19.572237, Alt.=838.977051m. Speed=33.048000m/h.</desc>
<speed>9.180000</speed>
</trkpt>
<trkpt lat="42.935608" lon="19.571842">
<ele>822.8</ele>
<time>2012-04-30T11:10:22Z</time>
<desc>lat.=42.935608, lon.=19.571842, Alt.=838.867676m. Speed=33.840000m/h.</desc>
<speed>9.400000</speed>
</trkpt>
<trkpt lat="42.933464" lon="19.572355">
<ele>821.8</ele>
<time>2012-04-30T11:10:52Z</time>
<desc>lat.=42.933464, lon.=19.572355, Alt.=828.664551m. Speed=27.504000m/h.</desc>
<speed>7.640000</speed>
</trkpt>
<trkpt lat="42.931976" lon="19.572252">
<ele>830.4</ele>
<time>2012-04-30T11:11:17Z</time>
<desc>lat.=42.931976, lon.=19.572252, Alt.=834.961426m. Speed=23.652000m/h.</desc>
<speed>6.570000</speed>
</trkpt>
<trkpt lat="42.931461" lon="19.572384">
<ele>852.8</ele>
<time>2012-04-30T11:11:27Z</time>
<desc>lat.=42.931461, lon.=19.572384, Alt.=837.289551m. Speed=20.916000m/h.</desc>
<speed>5.810000</speed>
</trkpt>
<trkpt lat="42.931141" lon="19.572803">
<ele>841.1</ele>
<time>2012-04-30T11:11:37Z</time>
<desc>lat.=42.931141, lon.=19.572803, Alt.=841.055176m. Speed=19.403999m/h.</desc>
<speed>5.390000</speed>
</trkpt>
<trkpt lat="42.930817" lon="19.574020">
<ele>837.5</ele>
<time>2012-04-30T11:11:57Z</time>
<desc>lat.=42.930817, lon.=19.574020, Alt.=842.695801m. Speed=16.164000m/h.</desc>
<speed>4.490000</speed>
</trkpt>
<trkpt lat="42.929890" lon="19.575640">
<ele>837.1</ele>
<time>2012-04-30T11:12:27Z</time>
<desc>lat.=42.929890, lon.=19.575640, Alt.=847.727051m. Speed=24.372000m/h.</desc>
<speed>6.770000</speed>
</trkpt>
<trkpt lat="42.929367" lon="19.576181">
<ele>832.4</ele>
<time>2012-04-30T11:12:37Z</time>
<desc>lat.=42.929367, lon.=19.576181, Alt.=843.414551m. Speed=26.388000m/h.</desc>
<speed>7.330000</speed>
</trkpt>
<trkpt lat="42.928650" lon="19.576120">
<ele>830.5</ele>
<time>2012-04-30T11:12:47Z</time>
<desc>lat.=42.928650, lon.=19.576120, Alt.=840.992676m. Speed=27.072001m/h.</desc>
<speed>7.520000</speed>
</trkpt>
<trkpt lat="42.926704" lon="19.575455">
<ele>832.7</ele>
<time>2012-04-30T11:13:17Z</time>
<desc>lat.=42.926704, lon.=19.575455, Alt.=840.430176m. Speed=27.072001m/h.</desc>
<speed>7.520000</speed>
</trkpt>
<trkpt lat="42.925770" lon="19.574602">
<ele>834.5</ele>
<time>2012-04-30T11:13:32Z</time>
<desc>lat.=42.925770, lon.=19.574602, Alt.=845.039551m. Speed=34.452000m/h.</desc>
<speed>9.570000</speed>
</trkpt>
<trkpt lat="42.925781" lon="19.573957">
<ele>835.3</ele>
<time>2012-04-30T11:13:40Z</time>
<desc>lat.=42.925781, lon.=19.573957, Alt.=843.852051m. Speed=21.816000m/h.</desc>
<speed>6.060000</speed>
</trkpt>
<trkpt lat="42.924938" lon="19.573408">
<ele>838.7</ele>
<time>2012-04-30T11:13:55Z</time>
<desc>lat.=42.924938, lon.=19.573408, Alt.=850.242676m. Speed=24.299999m/h.</desc>
<speed>6.750000</speed>
</trkpt>
<trkpt lat="42.924622" lon="19.573429">
<ele>841.2</ele>
<time>2012-04-30T11:14:00Z</time>
<desc>lat.=42.924622, lon.=19.573429, Alt.=849.523926m. Speed=26.676001m/h.</desc>
<speed>7.410000</speed>
</trkpt>
<trkpt lat="42.924088" lon="19.573847">
<ele>845.2</ele>
<time>2012-04-30T11:14:10Z</time>
<desc>lat.=42.924088, lon.=19.573847, Alt.=851.617676m. Speed=20.988001m/h.</desc>
<speed>5.830000</speed>
</trkpt>
<trkpt lat="42.922836" lon="19.576185">
<ele>844.0</ele>
<time>2012-04-30T11:14:50Z</time>
<desc>lat.=42.922836, lon.=19.576185, Alt.=851.258301m. Speed=17.459999m/h.</desc>
<speed>4.850000</speed>
</trkpt>
<trkpt lat="42.921997" lon="19.576910">
<ele>846.9</ele>
<time>2012-04-30T11:15:15Z</time>
<desc>lat.=42.921997, lon.=19.576910, Alt.=845.008301m. Speed=15.228000m/h.</desc>
<speed>4.230000</speed>
</trkpt>
<trkpt lat="42.920940" lon="19.576830">
<ele>850.2</ele>
<time>2012-04-30T11:15:40Z</time>
<desc>lat.=42.920940, lon.=19.576830, Alt.=850.523926m. Speed=19.368000m/h.</desc>
<speed>5.380000</speed>
</trkpt>
<trkpt lat="42.919674" lon="19.576401">
<ele>852.1</ele>
<time>2012-04-30T11:16:05Z</time>
<desc>lat.=42.919674, lon.=19.576401, Alt.=854.586426m. Speed=21.636000m/h.</desc>
<speed>6.010000</speed>
</trkpt>
<trkpt lat="42.918167" lon="19.575806">
<ele>848.6</ele>
<time>2012-04-30T11:16:30Z</time>
<desc>lat.=42.918167, lon.=19.575806, Alt.=856.117676m. Speed=25.992001m/h.</desc>
<speed>7.220000</speed>
</trkpt>
<trkpt lat="42.916470" lon="19.574762">
<ele>850.9</ele>
<time>2012-04-30T11:17:05Z</time>
<desc>lat.=42.916470, lon.=19.574762, Alt.=860.398926m. Speed=9.324000m/h.</desc>
<speed>2.590000</speed>
</trkpt>
<trkpt lat="42.915924" lon="19.575243">
<ele>851.2</ele>
<time>2012-04-30T11:18:50Z</time>
<desc>lat.=42.915924, lon.=19.575243, Alt.=847.211426m. Speed=10.692000m/h.</desc>
<speed>2.970000</speed>
</trkpt>
<trkpt lat="42.915829" lon="19.575563">
<ele>859.6</ele>
<time>2012-04-30T11:19:05Z</time>
<desc>lat.=42.915829, lon.=19.575563, Alt.=848.633301m. Speed=7.488000m/h.</desc>
<speed>2.080000</speed>
</trkpt>
<trkpt lat="42.914867" lon="19.575834">
<ele>876.6</ele>
<time>2012-04-30T11:19:40Z</time>
<desc>lat.=42.914867, lon.=19.575834, Alt.=859.992676m. Speed=8.784000m/h.</desc>
<speed>2.440000</speed>
</trkpt>
<trkpt lat="42.914570" lon="19.575590">
<ele>864.7</ele>
<time>2012-04-30T11:19:50Z</time>
<desc>lat.=42.914570, lon.=19.575590, Alt.=866.836426m. Speed=10.908000m/h.</desc>
<speed>3.030000</speed>
</trkpt>
<trkpt lat="42.914238" lon="19.575720">
<ele>869.5</ele>
<time>2012-04-30T11:20:00Z</time>
<desc>lat.=42.914238, lon.=19.575720, Alt.=865.430176m. Speed=5.292000m/h.</desc>
<speed>1.470000</speed>
</trkpt>
<trkpt lat="42.914814" lon="19.576147">
<ele>881.4</ele>
<time>2012-04-30T11:20:40Z</time>
<desc>lat.=42.914814, lon.=19.576147, Alt.=870.898926m. Speed=7.776000m/h.</desc>
<speed>2.160000</speed>
</trkpt>
<trkpt lat="42.916271" lon="19.576542">
<ele>882.6</ele>
<time>2012-04-30T11:22:00Z</time>
<desc>lat.=42.916271, lon.=19.576542, Alt.=890.695801m. Speed=7.128000m/h.</desc>
<speed>1.980000</speed>
</trkpt>
<trkpt lat="42.916435" lon="19.577177">
<ele>878.7</ele>
<time>2012-04-30T11:24:15Z</time>
<desc>lat.=42.916435, lon.=19.577177, Alt.=880.820801m. Speed=1.728000m/h.</desc>
<speed>0.480000</speed>
</trkpt>
<trkpt lat="42.916828" lon="19.577600">
<ele>883.6</ele>
<time>2012-04-30T11:25:55Z</time>
<desc>lat.=42.916828, lon.=19.577600, Alt.=881.148926m. Speed=1.296000m/h.</desc>
<speed>0.360000</speed>
</trkpt>
<trkpt lat="42.916763" lon="19.578072">
<ele>890.3</ele>
<time>2012-04-30T11:26:35Z</time>
<desc>lat.=42.916763, lon.=19.578072, Alt.=883.789551m. Speed=3.888000m/h.</desc>
<speed>1.080000</speed>
</trkpt>
<trkpt lat="42.916431" lon="19.577909">
<ele>890.4</ele>
<time>2012-04-30T11:27:00Z</time>
<desc>lat.=42.916431, lon.=19.577909, Alt.=885.242676m. Speed=7.308000m/h.</desc>
<speed>2.030000</speed>
</trkpt>
<trkpt lat="42.915874" lon="19.578054">
<ele>907.1</ele>
<time>2012-04-30T11:27:25Z</time>
<desc>lat.=42.915874, lon.=19.578054, Alt.=889.477051m. Speed=4.644000m/h.</desc>
<speed>1.290000</speed>
</trkpt>
<trkpt lat="42.915234" lon="19.577703">
<ele>917.4</ele>
<time>2012-04-30T11:28:00Z</time>
<desc>lat.=42.915234, lon.=19.577703, Alt.=897.414551m. Speed=7.884000m/h.</desc>
<speed>2.190000</speed>
</trkpt>
<trkpt lat="42.915157" lon="19.577925">
<ele>923.1</ele>
<time>2012-04-30T11:28:10Z</time>
<desc>lat.=42.915157, lon.=19.577925, Alt.=901.164551m. Speed=3.996000m/h.</desc>
<speed>1.110000</speed>
</trkpt>
<trkpt lat="42.915462" lon="19.577984">
<ele>915.7</ele>
<time>2012-04-30T11:28:25Z</time>
<desc>lat.=42.915462, lon.=19.577984, Alt.=902.102051m. Speed=9.000000m/h.</desc>
<speed>2.500000</speed>
</trkpt>
<trkpt lat="42.916107" lon="19.578709">
<ele>920.8</ele>
<time>2012-04-30T11:29:10Z</time>
<desc>lat.=42.916107, lon.=19.578709, Alt.=904.445801m. Speed=6.588000m/h.</desc>
<speed>1.830000</speed>
</trkpt>
<trkpt lat="42.916088" lon="19.578947">
<ele>931.2</ele>
<time>2012-04-30T11:29:25Z</time>
<desc>lat.=42.916088, lon.=19.578947, Alt.=909.086426m. Speed=1.872000m/h.</desc>
<speed>0.520000</speed>
</trkpt>
<trkpt lat="42.915318" lon="19.578423">
<ele>927.6</ele>
<time>2012-04-30T11:30:30Z</time>
<desc>lat.=42.915318, lon.=19.578423, Alt.=936.461426m. Speed=6.156000m/h.</desc>
<speed>1.710000</speed>
</trkpt>
<trkpt lat="42.914879" lon="19.577839">
<ele>938.2</ele>
<time>2012-04-30T11:31:00Z</time>
<desc>lat.=42.914879, lon.=19.577839, Alt.=957.727051m. Speed=7.056000m/h.</desc>
<speed>1.960000</speed>
</trkpt>
<trkpt lat="42.914207" lon="19.577650">
<ele>933.4</ele>
<time>2012-04-30T11:31:40Z</time>
<desc>lat.=42.914207, lon.=19.577650, Alt.=963.461426m. Speed=8.424000m/h.</desc>
<speed>2.340000</speed>
</trkpt>
<trkpt lat="42.913834" lon="19.578688">
<ele>949.6</ele>
<time>2012-04-30T11:32:30Z</time>
<desc>lat.=42.913834, lon.=19.578688, Alt.=973.883301m. Speed=5.760000m/h.</desc>
<speed>1.600000</speed>
</trkpt>
<trkpt lat="42.913410" lon="19.578905">
<ele>951.0</ele>
<time>2012-04-30T11:32:45Z</time>
<desc>lat.=42.913410, lon.=19.578905, Alt.=977.273926m. Speed=6.768000m/h.</desc>
<speed>1.880000</speed>
</trkpt>
<trkpt lat="42.912724" lon="19.579672">
<ele>943.3</ele>
<time>2012-04-30T11:33:25Z</time>
<desc>lat.=42.912724, lon.=19.579672, Alt.=976.477051m. Speed=7.920000m/h.</desc>
<speed>2.200000</speed>
</trkpt>
<trkpt lat="42.911781" lon="19.582138">
<ele>973.5</ele>
<time>2012-04-30T11:35:10Z</time>
<desc>lat.=42.911781, lon.=19.582138, Alt.=972.898926m. Speed=4.320000m/h.</desc>
<speed>1.200000</speed>
</trkpt>
<trkpt lat="42.911812" lon="19.582693">
<ele>981.1</ele>
<time>2012-04-30T11:37:15Z</time>
<desc>lat.=42.911812, lon.=19.582693, Alt.=973.758301m. Speed=13.572000m/h.</desc>
<speed>3.770000</speed>
</trkpt>
<trkpt lat="42.911407" lon="19.583035">
<ele>980.2</ele>
<time>2012-04-30T11:37:30Z</time>
<desc>lat.=42.911407, lon.=19.583035, Alt.=977.648926m. Speed=12.240000m/h.</desc>
<speed>3.400000</speed>
</trkpt>
<trkpt lat="42.911232" lon="19.583698">
<ele>990.3</ele>
<time>2012-04-30T11:37:55Z</time>
<desc>lat.=42.911232, lon.=19.583698, Alt.=982.367676m. Speed=11.376000m/h.</desc>
<speed>3.160000</speed>
</trkpt>
<trkpt lat="42.910290" lon="19.584673">
<ele>1010.4</ele>
<time>2012-04-30T11:38:40Z</time>
<desc>lat.=42.910290, lon.=19.584673, Alt.=988.508301m. Speed=6.048000m/h.</desc>
<speed>1.680000</speed>
</trkpt>
<trkpt lat="42.909473" lon="19.585024">
<ele>994.7</ele>
<time>2012-04-30T11:39:25Z</time>
<desc>lat.=42.909473, lon.=19.585024, Alt.=993.977051m. Speed=7.992000m/h.</desc>
<speed>2.220000</speed>
</trkpt>
<trkpt lat="42.909233" lon="19.586115">
<ele>1027.5</ele>
<time>2012-04-30T11:40:15Z</time>
<desc>lat.=42.909233, lon.=19.586115, Alt.=1009.461426m. Speed=5.688000m/h.</desc>
<speed>1.580000</speed>
</trkpt>
<trkpt lat="42.908508" lon="19.586119">
<ele>1027.3</ele>
<time>2012-04-30T11:41:00Z</time>
<desc>lat.=42.908508, lon.=19.586119, Alt.=1019.445801m. Speed=3.744000m/h.</desc>
<speed>1.040000</speed>
</trkpt>
<trkpt lat="42.907379" lon="19.586878">
<ele>1029.2</ele>
<time>2012-04-30T11:42:10Z</time>
<desc>lat.=42.907379, lon.=19.586878, Alt.=1030.985352m. Speed=8.136000m/h.</desc>
<speed>2.260000</speed>
</trkpt>
<trkpt lat="42.906551" lon="19.587805">
<ele>1039.8</ele>
<time>2012-04-30T11:43:05Z</time>
<desc>lat.=42.906551, lon.=19.587805, Alt.=1042.610352m. Speed=6.012000m/h.</desc>
<speed>1.670000</speed>
</trkpt>
<trkpt lat="42.905636" lon="19.588444">
<ele>1036.8</ele>
<time>2012-04-30T11:43:50Z</time>
<desc>lat.=42.905636, lon.=19.588444, Alt.=1050.547852m. Speed=10.224000m/h.</desc>
<speed>2.840000</speed>
</trkpt>
<trkpt lat="42.904999" lon="19.589849">
<ele>1055.4</ele>
<time>2012-04-30T11:44:45Z</time>
<desc>lat.=42.904999, lon.=19.589849, Alt.=1059.954102m. Speed=7.344000m/h.</desc>
<speed>2.040000</speed>
</trkpt>
<trkpt lat="42.903206" lon="19.590807">
<ele>1061.7</ele>
<time>2012-04-30T11:46:00Z</time>
<desc>lat.=42.903206, lon.=19.590807, Alt.=1070.891602m. Speed=6.552000m/h.</desc>
<speed>1.820000</speed>
</trkpt>
<trkpt lat="42.903614" lon="19.591272">
<ele>1071.9</ele>
<time>2012-04-30T11:46:25Z</time>
<desc>lat.=42.903614, lon.=19.591272, Alt.=1069.454102m. Speed=6.336000m/h.</desc>
<speed>1.760000</speed>
</trkpt>
<trkpt lat="42.903423" lon="19.591957">
<ele>1090.5</ele>
<time>2012-04-30T11:47:00Z</time>
<desc>lat.=42.903423, lon.=19.591957, Alt.=1073.110352m. Speed=4.608000m/h.</desc>
<speed>1.280000</speed>
</trkpt>
<trkpt lat="42.903683" lon="19.592646">
<ele>1085.7</ele>
<time>2012-04-30T11:47:30Z</time>
<desc>lat.=42.903683, lon.=19.592646, Alt.=1083.922852m. Speed=1.944000m/h.</desc>
<speed>0.540000</speed>
</trkpt>
<trkpt lat="42.903149" lon="19.592947">
<ele>1099.7</ele>
<time>2012-04-30T11:48:00Z</time>
<desc>lat.=42.903149, lon.=19.592947, Alt.=1102.797852m. Speed=6.984000m/h.</desc>
<speed>1.940000</speed>
</trkpt>
<trkpt lat="42.902004" lon="19.594122">
<ele>1116.4</ele>
<time>2012-04-30T11:49:10Z</time>
<desc>lat.=42.902004, lon.=19.594122, Alt.=1138.016602m. Speed=6.228000m/h.</desc>
<speed>1.730000</speed>
</trkpt>
<trkpt lat="42.900688" lon="19.594587">
<ele>1128.7</ele>
<time>2012-04-30T11:50:30Z</time>
<desc>lat.=42.900688, lon.=19.594587, Alt.=1152.422852m. Speed=4.392000m/h.</desc>
<speed>1.220000</speed>
</trkpt>
<trkpt lat="42.900440" lon="19.595556">
<ele>1110.0</ele>
<time>2012-04-30T11:54:35Z</time>
<desc>lat.=42.900440, lon.=19.595556, Alt.=1131.110352m. Speed=0.252000m/h.</desc>
<speed>0.070000</speed>
</trkpt>
<trkpt lat="42.900436" lon="19.595152">
<ele>1123.8</ele>
<time>2012-04-30T12:01:30Z</time>
<desc>lat.=42.900436, lon.=19.595152, Alt.=1133.985352m. Speed=0.180000m/h.</desc>
<speed>0.050000</speed>
</trkpt>
<trkpt lat="42.900421" lon="19.595501">
<ele>1113.0</ele>
<time>2012-04-30T12:05:55Z</time>
<desc>lat.=42.900421, lon.=19.595501, Alt.=1123.610352m. Speed=1.080000m/h.</desc>
<speed>0.300000</speed>
</trkpt>
<trkpt lat="42.900616" lon="19.595417">
<ele>1115.2</ele>
<time>2012-04-30T12:11:55Z</time>
<desc>lat.=42.900616, lon.=19.595417, Alt.=1143.891602m. Speed=2.808000m/h.</desc>
<speed>0.780000</speed>
</trkpt>
<trkpt lat="42.900810" lon="19.595673">
<ele>1110.7</ele>
<time>2012-04-30T12:13:20Z</time>
<desc>lat.=42.900810, lon.=19.595673, Alt.=1137.110352m. Speed=3.888000m/h.</desc>
<speed>1.080000</speed>
</trkpt>
<trkpt lat="42.901321" lon="19.595404">
<ele>1134.2</ele>
<time>2012-04-30T12:15:30Z</time>
<desc>lat.=42.901321, lon.=19.595404, Alt.=1129.047852m. Speed=6.876000m/h.</desc>
<speed>1.910000</speed>
</trkpt>
<trkpt lat="42.901531" lon="19.595537">
<ele>1137.7</ele>
<time>2012-04-30T12:15:45Z</time>
<desc>lat.=42.901531, lon.=19.595537, Alt.=1133.766602m. Speed=5.976000m/h.</desc>
<speed>1.660000</speed>
</trkpt>
<trkpt lat="42.901787" lon="19.596283">
<ele>1143.2</ele>
<time>2012-04-30T12:16:25Z</time>
<desc>lat.=42.901787, lon.=19.596283, Alt.=1145.454102m. Speed=3.024000m/h.</desc>
<speed>0.840000</speed>
</trkpt>
<trkpt lat="42.901695" lon="19.597244">
<ele>1147.8</ele>
<time>2012-04-30T12:17:35Z</time>
<desc>lat.=42.901695, lon.=19.597244, Alt.=1149.329102m. Speed=5.976000m/h.</desc>
<speed>1.660000</speed>
</trkpt>
<trkpt lat="42.901875" lon="19.597752">
<ele>1153.4</ele>
<time>2012-04-30T12:17:55Z</time>
<desc>lat.=42.901875, lon.=19.597752, Alt.=1154.360352m. Speed=2.844000m/h.</desc>
<speed>0.790000</speed>
</trkpt>
<trkpt lat="42.902168" lon="19.597784">
<ele>1160.3</ele>
<time>2012-04-30T12:18:20Z</time>
<desc>lat.=42.902168, lon.=19.597784, Alt.=1158.172852m. Speed=2.160000m/h.</desc>
<speed>0.600000</speed>
</trkpt>
<trkpt lat="42.902985" lon="19.596872">
<ele>1169.6</ele>
<time>2012-04-30T12:19:45Z</time>
<desc>lat.=42.902985, lon.=19.596872, Alt.=1171.860352m. Speed=2.952000m/h.</desc>
<speed>0.820000</speed>
</trkpt>
<trkpt lat="42.903370" lon="19.596809">
<ele>1174.3</ele>
<time>2012-04-30T12:20:45Z</time>
<desc>lat.=42.903370, lon.=19.596809, Alt.=1175.141602m. Speed=0.036000m/h.</desc>
<speed>0.010000</speed>
</trkpt>
<trkpt lat="42.902889" lon="19.597195">
<ele>1169.3</ele>
<time>2012-04-30T12:21:35Z</time>
<desc>lat.=42.902889, lon.=19.597195, Alt.=1179.579102m. Speed=5.292000m/h.</desc>
<speed>1.470000</speed>
</trkpt>
<trkpt lat="42.902088" lon="19.601526">
<ele>1212.0</ele>
<time>2012-04-30T12:25:20Z</time>
<desc>lat.=42.902088, lon.=19.601526, Alt.=1197.172852m. Speed=2.160000m/h.</desc>
<speed>0.600000</speed>
</trkpt>
<trkpt lat="42.902985" lon="19.600790">
<ele>1207.9</ele>
<time>2012-04-30T12:26:25Z</time>
<desc>lat.=42.902985, lon.=19.600790, Alt.=1218.422852m. Speed=3.240000m/h.</desc>
<speed>0.900000</speed>
</trkpt>
<trkpt lat="42.903206" lon="19.600840">
<ele>1210.7</ele>
<time>2012-04-30T12:26:40Z</time>
<desc>lat.=42.903206, lon.=19.600840, Alt.=1219.329102m. Speed=2.160000m/h.</desc>
<speed>0.600000</speed>
</trkpt>
<trkpt lat="42.902512" lon="19.601839">
<ele>1238.9</ele>
<time>2012-04-30T12:27:40Z</time>
<desc>lat.=42.902512, lon.=19.601839, Alt.=1215.141602m. Speed=5.976000m/h.</desc>
<speed>1.660000</speed>
</trkpt>
<trkpt lat="42.902325" lon="19.603388">
<ele>1257.0</ele>
<time>2012-04-30T12:28:45Z</time>
<desc>lat.=42.902325, lon.=19.603388, Alt.=1233.297852m. Speed=2.808000m/h.</desc>
<speed>0.780000</speed>
</trkpt>
<trkpt lat="42.902088" lon="19.603764">
<ele>1270.2</ele>
<time>2012-04-30T12:32:55Z</time>
<desc>lat.=42.902088, lon.=19.603764, Alt.=1238.266602m. Speed=0.036000m/h.</desc>
<speed>0.010000</speed>
</trkpt>
<trkpt lat="42.902199" lon="19.603926">
<ele>1277.0</ele>
<time>2012-04-30T12:34:05Z</time>
<desc>lat.=42.902199, lon.=19.603926, Alt.=1234.235352m. Speed=0.972000m/h.</desc>
<speed>0.270000</speed>
</trkpt>
<trkpt lat="42.901989" lon="19.603573">
<ele>1261.0</ele>
<time>2012-04-30T12:37:40Z</time>
<desc>lat.=42.901989, lon.=19.603573, Alt.=1253.516602m. Speed=3.852000m/h.</desc>
<speed>1.070000</speed>
</trkpt>
<trkpt lat="42.901649" lon="19.603525">
<ele>1259.5</ele>
<time>2012-04-30T12:38:00Z</time>
<desc>lat.=42.901649, lon.=19.603525, Alt.=1254.266602m. Speed=7.164000m/h.</desc>
<speed>1.990000</speed>
</trkpt>
<trkpt lat="42.901062" lon="19.604223">
<ele>1265.5</ele>
<time>2012-04-30T12:39:20Z</time>
<desc>lat.=42.901062, lon.=19.604223, Alt.=1268.704102m. Speed=5.112000m/h.</desc>
<speed>1.420000</speed>
</trkpt>
<trkpt lat="42.900410" lon="19.605728">
<ele>1275.9</ele>
<time>2012-04-30T12:40:20Z</time>
<desc>lat.=42.900410, lon.=19.605728, Alt.=1266.860352m. Speed=3.672000m/h.</desc>
<speed>1.020000</speed>
</trkpt>
<trkpt lat="42.900471" lon="19.606577">
<ele>1289.9</ele>
<time>2012-04-30T12:41:00Z</time>
<desc>lat.=42.900471, lon.=19.606577, Alt.=1265.985352m. Speed=2.592000m/h.</desc>
<speed>0.720000</speed>
</trkpt>
<trkpt lat="42.900177" lon="19.606506">
<ele>1285.0</ele>
<time>2012-04-30T12:41:20Z</time>
<desc>lat.=42.900177, lon.=19.606506, Alt.=1271.641602m. Speed=2.664000m/h.</desc>
<speed>0.740000</speed>
</trkpt>
<trkpt lat="42.899632" lon="19.607086">
<ele>1292.2</ele>
<time>2012-04-30T12:42:05Z</time>
<desc>lat.=42.899632, lon.=19.607086, Alt.=1282.985352m. Speed=4.428000m/h.</desc>
<speed>1.230000</speed>
</trkpt>
<trkpt lat="42.899395" lon="19.607548">
<ele>1291.8</ele>
<time>2012-04-30T12:42:30Z</time>
<desc>lat.=42.899395, lon.=19.607548, Alt.=1286.797852m. Speed=3.240000m/h.</desc>
<speed>0.900000</speed>
</trkpt>
<trkpt lat="42.899158" lon="19.608675">
<ele>1294.7</ele>
<time>2012-04-30T12:43:25Z</time>
<desc>lat.=42.899158, lon.=19.608675, Alt.=1298.297852m. Speed=4.320000m/h.</desc>
<speed>1.200000</speed>
</trkpt>
<trkpt lat="42.898685" lon="19.609507">
<ele>1294.1</ele>
<time>2012-04-30T12:44:20Z</time>
<desc>lat.=42.898685, lon.=19.609507, Alt.=1301.985352m. Speed=2.952000m/h.</desc>
<speed>0.820000</speed>
</trkpt>
<trkpt lat="42.898769" lon="19.609629">
<ele>1300.9</ele>
<time>2012-04-30T12:45:40Z</time>
<desc>lat.=42.898769, lon.=19.609629, Alt.=1304.329102m. Speed=0.396000m/h.</desc>
<speed>0.110000</speed>
</trkpt>
<trkpt lat="42.899757" lon="19.609112">
<ele>1327.0</ele>
<time>2012-04-30T12:53:15Z</time>
<desc>lat.=42.899757, lon.=19.609112, Alt.=1310.485352m. Speed=1.656000m/h.</desc>
<speed>0.460000</speed>
</trkpt>
<trkpt lat="42.900417" lon="19.608469">
<ele>1334.6</ele>
<time>2012-04-30T12:53:55Z</time>
<desc>lat.=42.900417, lon.=19.608469, Alt.=1313.672852m. Speed=1.404000m/h.</desc>
<speed>0.390000</speed>
</trkpt>
<trkpt lat="42.899998" lon="19.610170">
<ele>1356.3</ele>
<time>2012-04-30T12:55:35Z</time>
<desc>lat.=42.899998, lon.=19.610170, Alt.=1337.766602m. Speed=2.160000m/h.</desc>
<speed>0.600000</speed>
</trkpt>
<trkpt lat="42.899334" lon="19.610344">
<ele>1359.9</ele>
<time>2012-04-30T12:56:45Z</time>
<desc>lat.=42.899334, lon.=19.610344, Alt.=1337.391602m. Speed=2.592000m/h.</desc>
<speed>0.720000</speed>
</trkpt>
<trkpt lat="42.898903" lon="19.610739">
<ele>1361.3</ele>
<time>2012-04-30T12:57:20Z</time>
<desc>lat.=42.898903, lon.=19.610739, Alt.=1336.360352m. Speed=6.480000m/h.</desc>
<speed>1.800000</speed>
</trkpt>
<trkpt lat="42.898159" lon="19.612724">
<ele>1392.9</ele>
<time>2012-04-30T12:59:20Z</time>
<desc>lat.=42.898159, lon.=19.612724, Alt.=1370.766602m. Speed=4.644000m/h.</desc>
<speed>1.290000</speed>
</trkpt>
<trkpt lat="42.897831" lon="19.612753">
<ele>1392.3</ele>
<time>2012-04-30T12:59:45Z</time>
<desc>lat.=42.897831, lon.=19.612753, Alt.=1377.516602m. Speed=3.888000m/h.</desc>
<speed>1.080000</speed>
</trkpt>
<trkpt lat="42.897568" lon="19.613243">
<ele>1410.7</ele>
<time>2012-04-30T13:00:15Z</time>
<desc>lat.=42.897568, lon.=19.613243, Alt.=1379.922852m. Speed=6.192000m/h.</desc>
<speed>1.720000</speed>
</trkpt>
<trkpt lat="42.897022" lon="19.613199">
<ele>1398.7</ele>
<time>2012-04-30T13:00:50Z</time>
<desc>lat.=42.897022, lon.=19.613199, Alt.=1383.704102m. Speed=3.204000m/h.</desc>
<speed>0.890000</speed>
</trkpt>
<trkpt lat="42.896614" lon="19.615086">
<ele>1400.0</ele>
<time>2012-04-30T13:02:30Z</time>
<desc>lat.=42.896614, lon.=19.615086, Alt.=1398.172852m. Speed=4.788000m/h.</desc>
<speed>1.330000</speed>
</trkpt>
<trkpt lat="42.896996" lon="19.614826">
<ele>1406.2</ele>
<time>2012-04-30T13:03:40Z</time>
<desc>lat.=42.896996, lon.=19.614826, Alt.=1404.047852m. Speed=5.292000m/h.</desc>
<speed>1.470000</speed>
</trkpt>
<trkpt lat="42.897411" lon="19.614109">
<ele>1425.1</ele>
<time>2012-04-30T13:04:30Z</time>
<desc>lat.=42.897411, lon.=19.614109, Alt.=1418.672852m. Speed=3.852000m/h.</desc>
<speed>1.070000</speed>
</trkpt>
<trkpt lat="42.897938" lon="19.614201">
<ele>1447.4</ele>
<time>2012-04-30T13:05:10Z</time>
<desc>lat.=42.897938, lon.=19.614201, Alt.=1432.829102m. Speed=2.736000m/h.</desc>
<speed>0.760000</speed>
</trkpt>
<trkpt lat="42.898270" lon="19.613932">
<ele>1442.4</ele>
<time>2012-04-30T13:05:30Z</time>
<desc>lat.=42.898270, lon.=19.613932, Alt.=1438.235352m. Speed=5.220000m/h.</desc>
<speed>1.450000</speed>
</trkpt>
<trkpt lat="42.898411" lon="19.614157">
<ele>1458.7</ele>
<time>2012-04-30T13:06:05Z</time>
<desc>lat.=42.898411, lon.=19.614157, Alt.=1442.797852m. Speed=1.656000m/h.</desc>
<speed>0.460000</speed>
</trkpt>
<trkpt lat="42.898350" lon="19.614031">
<ele>1450.0</ele>
<time>2012-04-30T13:06:10Z</time>
<desc>lat.=42.898350, lon.=19.614031, Alt.=1442.985352m. Speed=0.576000m/h.</desc>
<speed>0.160000</speed>
</trkpt>
<trkpt lat="42.898682" lon="19.614149">
<ele>1466.4</ele>
<time>2012-04-30T13:06:50Z</time>
<desc>lat.=42.898682, lon.=19.614149, Alt.=1444.922852m. Speed=4.284000m/h.</desc>
<speed>1.190000</speed>
</trkpt>
<trkpt lat="42.899242" lon="19.613461">
<ele>1458.7</ele>
<time>2012-04-30T13:08:10Z</time>
<desc>lat.=42.899242, lon.=19.613461, Alt.=1449.204102m. Speed=1.728000m/h.</desc>
<speed>0.480000</speed>
</trkpt>
<trkpt lat="42.899414" lon="19.613453">
<ele>1464.8</ele>
<time>2012-04-30T13:08:45Z</time>
<desc>lat.=42.899414, lon.=19.613453, Alt.=1449.641602m. Speed=0.144000m/h.</desc>
<speed>0.040000</speed>
</trkpt>
<trkpt lat="42.898960" lon="19.613785">
<ele>1452.4</ele>
<time>2012-04-30T13:19:10Z</time>
<desc>lat.=42.898960, lon.=19.613785, Alt.=1459.516602m. Speed=4.176000m/h.</desc>
<speed>1.160000</speed>
</trkpt>
<trkpt lat="42.898697" lon="19.614363">
<ele>1474.5</ele>
<time>2012-04-30T13:19:35Z</time>
<desc>lat.=42.898697, lon.=19.614363, Alt.=1465.110352m. Speed=6.264000m/h.</desc>
<speed>1.740000</speed>
</trkpt>
<trkpt lat="42.897839" lon="19.615074">
<ele>1470.3</ele>
<time>2012-04-30T13:20:40Z</time>
<desc>lat.=42.897839, lon.=19.615074, Alt.=1473.485352m. Speed=3.600000m/h.</desc>
<speed>1.000000</speed>
</trkpt>
<trkpt lat="42.897797" lon="19.615873">
<ele>1470.4</ele>
<time>2012-04-30T13:21:15Z</time>
<desc>lat.=42.897797, lon.=19.615873, Alt.=1474.766602m. Speed=4.032000m/h.</desc>
<speed>1.120000</speed>
</trkpt>
<trkpt lat="42.898224" lon="19.615364">
<ele>1497.4</ele>
<time>2012-04-30T13:22:05Z</time>
<desc>lat.=42.898224, lon.=19.615364, Alt.=1478.047852m. Speed=3.168000m/h.</desc>
<speed>0.880000</speed>
</trkpt>
<trkpt lat="42.898727" lon="19.615301">
<ele>1510.5</ele>
<time>2012-04-30T13:22:35Z</time>
<desc>lat.=42.898727, lon.=19.615301, Alt.=1493.735352m. Speed=4.176000m/h.</desc>
<speed>1.160000</speed>
</trkpt>
<trkpt lat="42.899555" lon="19.614574">
<ele>1510.5</ele>
<time>2012-04-30T13:23:45Z</time>
<desc>lat.=42.899555, lon.=19.614574, Alt.=1512.766602m. Speed=4.392000m/h.</desc>
<speed>1.220000</speed>
</trkpt>
<trkpt lat="42.898811" lon="19.615740">
<ele>1520.9</ele>
<time>2012-04-30T13:25:25Z</time>
<desc>lat.=42.898811, lon.=19.615740, Alt.=1519.766602m. Speed=2.664000m/h.</desc>
<speed>0.740000</speed>
</trkpt>
<trkpt lat="42.898521" lon="19.615927">
<ele>1519.1</ele>
<time>2012-04-30T13:25:45Z</time>
<desc>lat.=42.898521, lon.=19.615927, Alt.=1522.641602m. Speed=5.112000m/h.</desc>
<speed>1.420000</speed>
</trkpt>
<trkpt lat="42.898506" lon="19.616245">
<ele>1522.1</ele>
<time>2012-04-30T13:26:05Z</time>
<desc>lat.=42.898506, lon.=19.616245, Alt.=1517.266602m. Speed=4.104000m/h.</desc>
<speed>1.140000</speed>
</trkpt>
<trkpt lat="42.899136" lon="19.616060">
<ele>1545.8</ele>
<time>2012-04-30T13:35:20Z</time>
<desc>lat.=42.899136, lon.=19.616060, Alt.=1529.172852m. Speed=2.268000m/h.</desc>
<speed>0.630000</speed>
</trkpt>
<trkpt lat="42.899902" lon="19.615290">
<ele>1555.5</ele>
<time>2012-04-30T13:36:20Z</time>
<desc>lat.=42.899902, lon.=19.615290, Alt.=1535.704102m. Speed=1.872000m/h.</desc>
<speed>0.520000</speed>
</trkpt>
<trkpt lat="42.899029" lon="19.616648">
<ele>1556.8</ele>
<time>2012-04-30T13:38:05Z</time>
<desc>lat.=42.899029, lon.=19.616648, Alt.=1557.641602m. Speed=1.116000m/h.</desc>
<speed>0.310000</speed>
</trkpt>
<trkpt lat="42.899357" lon="19.616590">
<ele>1567.6</ele>
<time>2012-04-30T13:38:45Z</time>
<desc>lat.=42.899357, lon.=19.616590, Alt.=1563.235352m. Speed=1.836000m/h.</desc>
<speed>0.510000</speed>
</trkpt>
<trkpt lat="42.900036" lon="19.615915">
<ele>1578.2</ele>
<time>2012-04-30T13:39:45Z</time>
<desc>lat.=42.900036, lon.=19.615915, Alt.=1566.204102m. Speed=1.692000m/h.</desc>
<speed>0.470000</speed>
</trkpt>
<trkpt lat="42.899273" lon="19.617199">
<ele>1569.5</ele>
<time>2012-04-30T13:40:55Z</time>
<desc>lat.=42.899273, lon.=19.617199, Alt.=1575.485352m. Speed=8.028000m/h.</desc>
<speed>2.230000</speed>
</trkpt>
<trkpt lat="42.899368" lon="19.617666">
<ele>1571.8</ele>
<time>2012-04-30T13:41:15Z</time>
<desc>lat.=42.899368, lon.=19.617666, Alt.=1576.360352m. Speed=6.048000m/h.</desc>
<speed>1.680000</speed>
</trkpt>
<trkpt lat="42.899681" lon="19.618025">
<ele>1579.3</ele>
<time>2012-04-30T13:42:50Z</time>
<desc>lat.=42.899681, lon.=19.618025, Alt.=1581.735352m. Speed=2.412000m/h.</desc>
<speed>0.670000</speed>
</trkpt>
<trkpt lat="42.899673" lon="19.617161">
<ele>1580.9</ele>
<time>2012-04-30T13:47:00Z</time>
<desc>lat.=42.899673, lon.=19.617161, Alt.=1588.829102m. Speed=6.696000m/h.</desc>
<speed>1.860000</speed>
</trkpt>
<trkpt lat="42.899834" lon="19.616798">
<ele>1585.0</ele>
<time>2012-04-30T13:47:20Z</time>
<desc>lat.=42.899834, lon.=19.616798, Alt.=1593.079102m. Speed=5.328000m/h.</desc>
<speed>1.480000</speed>
</trkpt>
<trkpt lat="42.900055" lon="19.616632">
<ele>1592.1</ele>
<time>2012-04-30T13:47:40Z</time>
<desc>lat.=42.900055, lon.=19.616632, Alt.=1593.860352m. Speed=2.304000m/h.</desc>
<speed>0.640000</speed>
</trkpt>
<trkpt lat="42.900486" lon="19.616877">
<ele>1608.4</ele>
<time>2012-04-30T13:48:15Z</time>
<desc>lat.=42.900486, lon.=19.616877, Alt.=1605.766602m. Speed=2.232000m/h.</desc>
<speed>0.620000</speed>
</trkpt>
<trkpt lat="42.900036" lon="19.616980">
<ele>1592.9</ele>
<time>2012-04-30T13:48:45Z</time>
<desc>lat.=42.900036, lon.=19.616980, Alt.=1604.516602m. Speed=6.336000m/h.</desc>
<speed>1.760000</speed>
</trkpt>
<trkpt lat="42.900341" lon="19.618019">
<ele>1621.4</ele>
<time>2012-04-30T13:49:45Z</time>
<desc>lat.=42.900341, lon.=19.618019, Alt.=1617.079102m. Speed=5.832000m/h.</desc>
<speed>1.620000</speed>
</trkpt>
<trkpt lat="42.900196" lon="19.618645">
<ele>1627.0</ele>
<time>2012-04-30T13:50:35Z</time>
<desc>lat.=42.900196, lon.=19.618645, Alt.=1627.922852m. Speed=2.592000m/h.</desc>
<speed>0.720000</speed>
</trkpt>
<trkpt lat="42.899868" lon="19.619112">
<ele>1626.6</ele>
<time>2012-04-30T13:51:35Z</time>
<desc>lat.=42.899868, lon.=19.619112, Alt.=1638.922852m. Speed=1.656000m/h.</desc>
<speed>0.460000</speed>
</trkpt>
<trkpt lat="42.900112" lon="19.618931">
<ele>1630.5</ele>
<time>2012-04-30T13:52:10Z</time>
<desc>lat.=42.900112, lon.=19.618931, Alt.=1645.922852m. Speed=2.844000m/h.</desc>
<speed>0.790000</speed>
</trkpt>
<trkpt lat="42.900749" lon="19.617695">
<ele>1627.5</ele>
<time>2012-04-30T13:54:00Z</time>
<desc>lat.=42.900749, lon.=19.617695, Alt.=1644.735352m. Speed=0.756000m/h.</desc>
<speed>0.210000</speed>
</trkpt>
<trkpt lat="42.900784" lon="19.617832">
<ele>1634.7</ele>
<time>2012-04-30T13:54:30Z</time>
<desc>lat.=42.900784, lon.=19.617832, Alt.=1641.797852m. Speed=3.600000m/h.</desc>
<speed>1.000000</speed>
</trkpt>
<trkpt lat="42.900463" lon="19.619040">
<ele>1647.7</ele>
<time>2012-04-30T13:56:15Z</time>
<desc>lat.=42.900463, lon.=19.619040, Alt.=1657.891602m. Speed=2.124000m/h.</desc>
<speed>0.590000</speed>
</trkpt>
<trkpt lat="42.900032" lon="19.619738">
<ele>1641.9</ele>
<time>2012-04-30T13:57:55Z</time>
<desc>lat.=42.900032, lon.=19.619738, Alt.=1659.235352m. Speed=0.072000m/h.</desc>
<speed>0.020000</speed>
</trkpt>
<trkpt lat="42.900009" lon="19.620665">
<ele>1656.8</ele>
<time>2012-04-30T13:59:30Z</time>
<desc>lat.=42.900009, lon.=19.620665, Alt.=1659.610352m. Speed=1.260000m/h.</desc>
<speed>0.350000</speed>
</trkpt>
<trkpt lat="42.899605" lon="19.621939">
<ele>1655.7</ele>
<time>2012-04-30T14:03:15Z</time>
<desc>lat.=42.899605, lon.=19.621939, Alt.=1676.329102m. Speed=4.392000m/h.</desc>
<speed>1.220000</speed>
</trkpt>
<trkpt lat="42.899567" lon="19.622429">
<ele>1655.7</ele>
<time>2012-04-30T14:03:40Z</time>
<desc>lat.=42.899567, lon.=19.622429, Alt.=1680.485352m. Speed=5.616000m/h.</desc>
<speed>1.560000</speed>
</trkpt>
<trkpt lat="42.899780" lon="19.623415">
<ele>1671.7</ele>
<time>2012-04-30T14:04:30Z</time>
<desc>lat.=42.899780, lon.=19.623415, Alt.=1680.860352m. Speed=6.732000m/h.</desc>
<speed>1.870000</speed>
</trkpt>
<trkpt lat="42.899826" lon="19.626064">
<ele>1680.4</ele>
<time>2012-04-30T14:12:35Z</time>
<desc>lat.=42.899826, lon.=19.626064, Alt.=1681.391602m. Speed=5.040000m/h.</desc>
<speed>1.400000</speed>
</trkpt>
<trkpt lat="42.899075" lon="19.626778">
<ele>1669.1</ele>
<time>2012-04-30T14:13:10Z</time>
<desc>lat.=42.899075, lon.=19.626778, Alt.=1675.360352m. Speed=10.692000m/h.</desc>
<speed>2.970000</speed>
</trkpt>
<trkpt lat="42.898781" lon="19.627439">
<ele>1668.6</ele>
<time>2012-04-30T14:17:30Z</time>
<desc>lat.=42.898781, lon.=19.627439, Alt.=1675.235352m. Speed=4.068000m/h.</desc>
<speed>1.130000</speed>
</trkpt>
<trkpt lat="42.898754" lon="19.628244">
<ele>1669.9</ele>
<time>2012-04-30T14:18:30Z</time>
<desc>lat.=42.898754, lon.=19.628244, Alt.=1678.891602m. Speed=2.520000m/h.</desc>
<speed>0.700000</speed>
</trkpt>
<trkpt lat="42.899143" lon="19.629019">
<ele>1675.7</ele>
<time>2012-04-30T14:20:00Z</time>
<desc>lat.=42.899143, lon.=19.629019, Alt.=1693.579102m. Speed=8.568000m/h.</desc>
<speed>2.380000</speed>
</trkpt>
<trkpt lat="42.898739" lon="19.629560">
<ele>1673.1</ele>
<time>2012-04-30T14:20:35Z</time>
<desc>lat.=42.898739, lon.=19.629560, Alt.=1686.516602m. Speed=4.140000m/h.</desc>
<speed>1.150000</speed>
</trkpt>
<trkpt lat="42.898598" lon="19.630796">
<ele>1677.1</ele>
<time>2012-04-30T14:22:25Z</time>
<desc>lat.=42.898598, lon.=19.630796, Alt.=1688.016602m. Speed=1.836000m/h.</desc>
<speed>0.510000</speed>
</trkpt>
<trkpt lat="42.898300" lon="19.630854">
<ele>1678.9</ele>
<time>2012-04-30T14:23:15Z</time>
<desc>lat.=42.898300, lon.=19.630854, Alt.=1684.454102m. Speed=2.196000m/h.</desc>
<speed>0.610000</speed>
</trkpt>
<trkpt lat="42.898270" lon="19.632904">
<ele>1689.3</ele>
<time>2012-04-30T14:25:25Z</time>
<desc>lat.=42.898270, lon.=19.632904, Alt.=1699.547852m. Speed=4.644000m/h.</desc>
<speed>1.290000</speed>
</trkpt>
<trkpt lat="42.898445" lon="19.633345">
<ele>1690.4</ele>
<time>2012-04-30T14:26:05Z</time>
<desc>lat.=42.898445, lon.=19.633345, Alt.=1701.235352m. Speed=3.996000m/h.</desc>
<speed>1.110000</speed>
</trkpt>
<trkpt lat="42.898323" lon="19.634317">
<ele>1700.6</ele>
<time>2012-04-30T14:28:15Z</time>
<desc>lat.=42.898323, lon.=19.634317, Alt.=1703.704102m. Speed=3.888000m/h.</desc>
<speed>1.080000</speed>
</trkpt>
<trkpt lat="42.898075" lon="19.634413">
<ele>1709.6</ele>
<time>2012-04-30T14:29:45Z</time>
<desc>lat.=42.898075, lon.=19.634413, Alt.=1717.266602m. Speed=0.144000m/h.</desc>
<speed>0.040000</speed>
</trkpt>
<trkpt lat="42.897331" lon="19.632515">
<ele>1724.5</ele>
<time>2012-04-30T14:36:20Z</time>
<desc>lat.=42.897331, lon.=19.632515, Alt.=1726.954102m. Speed=0.396000m/h.</desc>
<speed>0.110000</speed>
</trkpt>
<trkpt lat="42.897015" lon="19.632217">
<ele>1732.7</ele>
<time>2012-04-30T14:38:10Z</time>
<desc>lat.=42.897015, lon.=19.632217, Alt.=1725.704102m. Speed=0.720000m/h.</desc>
<speed>0.200000</speed>
</trkpt>
<trkpt lat="42.896835" lon="19.632259">
<ele>1739.8</ele>
<time>2012-04-30T14:39:55Z</time>
<desc>lat.=42.896835, lon.=19.632259, Alt.=1735.172852m. Speed=1.008000m/h.</desc>
<speed>0.280000</speed>
</trkpt>
<trkpt lat="42.897072" lon="19.633854">
<ele>1748.6</ele>
<time>2012-04-30T14:47:05Z</time>
<desc>lat.=42.897072, lon.=19.633854, Alt.=1761.797852m. Speed=2.988000m/h.</desc>
<speed>0.830000</speed>
</trkpt>
<trkpt lat="42.896416" lon="19.636074">
<ele>1766.2</ele>
<time>2012-04-30T14:53:25Z</time>
<desc>lat.=42.896416, lon.=19.636074, Alt.=1771.047852m. Speed=0.000000m/h.</desc>
<speed>0.000000</speed>
</trkpt>
<trkpt lat="42.896629" lon="19.636772">
<ele>1770.3</ele>
<time>2012-04-30T14:54:50Z</time>
<desc>lat.=42.896629, lon.=19.636772, Alt.=1778.454102m. Speed=0.000000m/h.</desc>
<speed>0.000000</speed>
</trkpt>
<trkpt lat="42.896461" lon="19.639883">
<ele>1821.4</ele>
<time>2012-04-30T15:06:05Z</time>
<desc>lat.=42.896461, lon.=19.639883, Alt.=1826.547852m. Speed=0.972000m/h.</desc>
<speed>0.270000</speed>
</trkpt>
<trkpt lat="42.896633" lon="19.639900">
<ele>1824.2</ele>
<time>2012-04-30T15:09:05Z</time>
<desc>lat.=42.896633, lon.=19.639900, Alt.=1830.079102m. Speed=0.360000m/h.</desc>
<speed>0.100000</speed>
</trkpt>
<trkpt lat="42.896049" lon="19.641132">
<ele>1848.4</ele>
<time>2012-04-30T15:14:25Z</time>
<desc>lat.=42.896049, lon.=19.641132, Alt.=1852.454102m. Speed=2.592000m/h.</desc>
<speed>0.720000</speed>
</trkpt>
<trkpt lat="42.895565" lon="19.641632">
<ele>1852.5</ele>
<time>2012-04-30T15:16:15Z</time>
<desc>lat.=42.895565, lon.=19.641632, Alt.=1854.641602m. Speed=3.060000m/h.</desc>
<speed>0.850000</speed>
</trkpt>
<trkpt lat="42.896198" lon="19.643414">
<ele>1857.0</ele>
<time>2012-04-30T15:32:00Z</time>
<desc>lat.=42.896198, lon.=19.643414, Alt.=1873.047852m. Speed=3.708000m/h.</desc>
<speed>1.030000</speed>
</trkpt>
<trkpt lat="42.896606" lon="19.643921">
<ele>1863.8</ele>
<time>2012-04-30T15:33:25Z</time>
<desc>lat.=42.896606, lon.=19.643921, Alt.=1886.485352m. Speed=2.484000m/h.</desc>
<speed>0.690000</speed>
</trkpt>
<trkpt lat="42.896523" lon="19.644150">
<ele>1856.5</ele>
<time>2012-04-30T15:34:00Z</time>
<desc>lat.=42.896523, lon.=19.644150, Alt.=1883.735352m. Speed=1.548000m/h.</desc>
<speed>0.430000</speed>
</trkpt>
<trkpt lat="42.896896" lon="19.645281">
<ele>1863.8</ele>
<time>2012-04-30T15:36:00Z</time>
<desc>lat.=42.896896, lon.=19.645281, Alt.=1875.922852m. Speed=1.332000m/h.</desc>
<speed>0.370000</speed>
</trkpt>
<trkpt lat="42.896904" lon="19.646639">
<ele>1865.4</ele>
<time>2012-04-30T15:37:10Z</time>
<desc>lat.=42.896904, lon.=19.646639, Alt.=1873.954102m. Speed=0.144000m/h.</desc>
<speed>0.040000</speed>
</trkpt>
<trkpt lat="42.896759" lon="19.647390">
<ele>1865.2</ele>
<time>2012-04-30T15:39:10Z</time>
<desc>lat.=42.896759, lon.=19.647390, Alt.=1875.329102m. Speed=2.628000m/h.</desc>
<speed>0.730000</speed>
</trkpt>
<trkpt lat="42.897068" lon="19.649803">
<ele>1876.0</ele>
<time>2012-04-30T15:42:05Z</time>
<desc>lat.=42.897068, lon.=19.649803, Alt.=1886.766602m. Speed=8.496000m/h.</desc>
<speed>2.360000</speed>
</trkpt>
<trkpt lat="42.896839" lon="19.650646">
<ele>1881.4</ele>
<time>2012-04-30T15:42:40Z</time>
<desc>lat.=42.896839, lon.=19.650646, Alt.=1881.297852m. Speed=4.824000m/h.</desc>
<speed>1.340000</speed>
</trkpt>
<trkpt lat="42.895920" lon="19.651548">
<ele>1888.8</ele>
<time>2012-04-30T15:43:55Z</time>
<desc>lat.=42.895920, lon.=19.651548, Alt.=1894.079102m. Speed=5.400000m/h.</desc>
<speed>1.500000</speed>
</trkpt>
<trkpt lat="42.895142" lon="19.653090">
<ele>1897.8</ele>
<time>2012-04-30T15:45:20Z</time>
<desc>lat.=42.895142, lon.=19.653090, Alt.=1894.735352m. Speed=6.768000m/h.</desc>
<speed>1.880000</speed>
</trkpt>
<trkpt lat="42.893372" lon="19.654350">
<ele>1912.2</ele>
<time>2012-04-30T15:49:35Z</time>
<desc>lat.=42.893372, lon.=19.654350, Alt.=1902.672852m. Speed=4.284000m/h.</desc>
<speed>1.190000</speed>
</trkpt>
<trkpt lat="42.892563" lon="19.655481">
<ele>1918.3</ele>
<time>2012-04-30T15:52:25Z</time>
<desc>lat.=42.892563, lon.=19.655481, Alt.=1915.454102m. Speed=3.672000m/h.</desc>
<speed>1.020000</speed>
</trkpt>
<trkpt lat="42.891079" lon="19.656681">
<ele>1919.7</ele>
<time>2012-04-30T15:56:25Z</time>
<desc>lat.=42.891079, lon.=19.656681, Alt.=1926.485352m. Speed=2.808000m/h.</desc>
<speed>0.780000</speed>
</trkpt>
<trkpt lat="42.890953" lon="19.657364">
<ele>1917.4</ele>
<time>2012-04-30T15:58:00Z</time>
<desc>lat.=42.890953, lon.=19.657364, Alt.=1928.047852m. Speed=3.528000m/h.</desc>
<speed>0.980000</speed>
</trkpt>
<trkpt lat="42.890110" lon="19.659348">
<ele>1919.1</ele>
<time>2012-04-30T16:02:15Z</time>
<desc>lat.=42.890110, lon.=19.659348, Alt.=1924.235352m. Speed=3.708000m/h.</desc>
<speed>1.030000</speed>
</trkpt>
<trkpt lat="42.889755" lon="19.659689">
<ele>1922.7</ele>
<time>2012-04-30T16:03:05Z</time>
<desc>lat.=42.889755, lon.=19.659689, Alt.=1925.016602m. Speed=3.456000m/h.</desc>
<speed>0.960000</speed>
</trkpt>
<trkpt lat="42.889114" lon="19.660851">
<ele>1929.3</ele>
<time>2012-04-30T16:05:10Z</time>
<desc>lat.=42.889114, lon.=19.660851, Alt.=1932.329102m. Speed=2.412000m/h.</desc>
<speed>0.670000</speed>
</trkpt>
<trkpt lat="42.888626" lon="19.661133">
<ele>1932.2</ele>
<time>2012-04-30T16:07:05Z</time>
<desc>lat.=42.888626, lon.=19.661133, Alt.=1937.579102m. Speed=3.636000m/h.</desc>
<speed>1.010000</speed>
</trkpt>
<trkpt lat="42.888561" lon="19.661951">
<ele>1938.9</ele>
<time>2012-04-30T16:08:30Z</time>
<desc>lat.=42.888561, lon.=19.661951, Alt.=1944.204102m. Speed=3.852000m/h.</desc>
<speed>1.070000</speed>
</trkpt>
<trkpt lat="42.888783" lon="19.662638">
<ele>1945.6</ele>
<time>2012-04-30T16:11:45Z</time>
<desc>lat.=42.888783, lon.=19.662638, Alt.=1945.829102m. Speed=3.996000m/h.</desc>
<speed>1.110000</speed>
</trkpt>
<trkpt lat="42.888584" lon="19.664116">
<ele>1951.9</ele>
<time>2012-04-30T16:13:55Z</time>
<desc>lat.=42.888584, lon.=19.664116, Alt.=1952.329102m. Speed=2.520000m/h.</desc>
<speed>0.700000</speed>
</trkpt>
<trkpt lat="42.887054" lon="19.667393">
<ele>1960.6</ele>
<time>2012-04-30T16:20:00Z</time>
<desc>lat.=42.887054, lon.=19.667393, Alt.=1975.672852m. Speed=4.104000m/h.</desc>
<speed>1.140000</speed>
</trkpt>
<trkpt lat="42.886517" lon="19.667854">
<ele>1958.7</ele>
<time>2012-04-30T16:21:00Z</time>
<desc>lat.=42.886517, lon.=19.667854, Alt.=1963.329102m. Speed=4.716000m/h.</desc>
<speed>1.310000</speed>
</trkpt>
<trkpt lat="42.886234" lon="19.668358">
<ele>1952.5</ele>
<time>2012-04-30T16:21:50Z</time>
<desc>lat.=42.886234, lon.=19.668358, Alt.=1967.235352m. Speed=0.252000m/h.</desc>
<speed>0.070000</speed>
</trkpt>
<trkpt lat="42.886810" lon="19.668037">
<ele>1957.0</ele>
<time>2012-04-30T16:26:05Z</time>
<desc>lat.=42.886810, lon.=19.668037, Alt.=1967.891602m. Speed=9.756000m/h.</desc>
<speed>2.710000</speed>
</trkpt>
<trkpt lat="42.887226" lon="19.668179">
<ele>1949.8</ele>
<time>2012-04-30T16:26:50Z</time>
<desc>lat.=42.887226, lon.=19.668179, Alt.=1991.485352m. Speed=0.720000m/h.</desc>
<speed>0.200000</speed>
</trkpt>
<trkpt lat="42.887478" lon="19.668055">
<ele>1966.4</ele>
<time>2012-04-30T16:27:20Z</time>
<desc>lat.=42.887478, lon.=19.668055, Alt.=1994.266602m. Speed=1.224000m/h.</desc>
<speed>0.340000</speed>
</trkpt>
<trkpt lat="42.886013" lon="19.668394">
<ele>1959.0</ele>
<time>2012-04-30T16:33:55Z</time>
<desc>lat.=42.886013, lon.=19.668394, Alt.=1968.672852m. Speed=2.916000m/h.</desc>
<speed>0.810000</speed>
</trkpt>
<trkpt lat="42.885612" lon="19.668840">
<ele>1965.2</ele>
<time>2012-04-30T16:34:50Z</time>
<desc>lat.=42.885612, lon.=19.668840, Alt.=1973.891602m. Speed=3.924000m/h.</desc>
<speed>1.090000</speed>
</trkpt>
<trkpt lat="42.885475" lon="19.669960">
<ele>1952.5</ele>
<time>2012-04-30T16:36:20Z</time>
<desc>lat.=42.885475, lon.=19.669960, Alt.=1965.297852m. Speed=0.072000m/h.</desc>
<speed>0.020000</speed>
</trkpt>
<trkpt lat="42.885090" lon="19.670982">
<ele>1919.8</ele>
<time>2012-04-30T16:41:20Z</time>
<desc>lat.=42.885090, lon.=19.670982, Alt.=1936.891602m. Speed=1.332000m/h.</desc>
<speed>0.370000</speed>
</trkpt>
<trkpt lat="42.884338" lon="19.671564">
<ele>1882.4</ele>
<time>2012-04-30T16:44:30Z</time>
<desc>lat.=42.884338, lon.=19.671564, Alt.=1905.547852m. Speed=0.108000m/h.</desc>
<speed>0.030000</speed>
</trkpt>
<trkpt lat="42.884232" lon="19.671034">
<ele>1871.3</ele>
<time>2012-04-30T16:45:55Z</time>
<desc>lat.=42.884232, lon.=19.671034, Alt.=1895.735352m. Speed=4.428000m/h.</desc>
<speed>1.230000</speed>
</trkpt>
<trkpt lat="42.884022" lon="19.670782">
<ele>1862.0</ele>
<time>2012-04-30T16:46:50Z</time>
<desc>lat.=42.884022, lon.=19.670782, Alt.=1891.141602m. Speed=1.476000m/h.</desc>
<speed>0.410000</speed>
</trkpt>
<trkpt lat="42.883614" lon="19.671255">
<ele>1837.2</ele>
<time>2012-04-30T16:48:45Z</time>
<desc>lat.=42.883614, lon.=19.671255, Alt.=1867.641602m. Speed=2.592000m/h.</desc>
<speed>0.720000</speed>
</trkpt>
<trkpt lat="42.883278" lon="19.671236">
<ele>1824.2</ele>
<time>2012-04-30T16:50:05Z</time>
<desc>lat.=42.883278, lon.=19.671236, Alt.=1855.829102m. Speed=2.304000m/h.</desc>
<speed>0.640000</speed>
</trkpt>
<trkpt lat="42.883106" lon="19.672165">
<ele>1806.1</ele>
<time>2012-04-30T16:52:05Z</time>
<desc>lat.=42.883106, lon.=19.672165, Alt.=1833.954102m. Speed=1.296000m/h.</desc>
<speed>0.360000</speed>
</trkpt>
<trkpt lat="42.883541" lon="19.673845">
<ele>1787.9</ele>
<time>2012-04-30T16:53:30Z</time>
<desc>lat.=42.883541, lon.=19.673845, Alt.=1818.547852m. Speed=22.104000m/h.</desc>
<speed>6.140000</speed>
</trkpt>
<trkpt lat="42.883434" lon="19.674618">
<ele>1785.1</ele>
<time>2012-04-30T16:54:30Z</time>
<desc>lat.=42.883434, lon.=19.674618, Alt.=1806.141602m. Speed=1.260000m/h.</desc>
<speed>0.350000</speed>
</trkpt>
<trkpt lat="42.883930" lon="19.674681">
<ele>1774.1</ele>
<time>2012-04-30T16:56:40Z</time>
<desc>lat.=42.883930, lon.=19.674681, Alt.=1791.641602m. Speed=9.108000m/h.</desc>
<speed>2.530000</speed>
</trkpt>
<trkpt lat="42.884560" lon="19.675232">
<ele>1762.4</ele>
<time>2012-04-30T16:58:00Z</time>
<desc>lat.=42.884560, lon.=19.675232, Alt.=1779.672852m. Speed=13.860000m/h.</desc>
<speed>3.850000</speed>
</trkpt>
<trkpt lat="42.884705" lon="19.676407">
<ele>1753.9</ele>
<time>2012-04-30T16:58:25Z</time>
<desc>lat.=42.884705, lon.=19.676407, Alt.=1772.516602m. Speed=4.500000m/h.</desc>
<speed>1.250000</speed>
</trkpt>
<trkpt lat="42.885303" lon="19.676830">
<ele>1749.8</ele>
<time>2012-04-30T16:59:40Z</time>
<desc>lat.=42.885303, lon.=19.676830, Alt.=1759.391602m. Speed=4.680000m/h.</desc>
<speed>1.300000</speed>
</trkpt>
<trkpt lat="42.885513" lon="19.677935">
<ele>1738.3</ele>
<time>2012-04-30T17:00:05Z</time>
<desc>lat.=42.885513, lon.=19.677935, Alt.=1754.297852m. Speed=14.328000m/h.</desc>
<speed>3.980000</speed>
</trkpt>
<trkpt lat="42.886028" lon="19.679224">
<ele>1722.7</ele>
<time>2012-04-30T17:01:00Z</time>
<desc>lat.=42.886028, lon.=19.679224, Alt.=1737.329102m. Speed=7.776000m/h.</desc>
<speed>2.160000</speed>
</trkpt>
<trkpt lat="42.886845" lon="19.680557">
<ele>1704.4</ele>
<time>2012-04-30T17:02:40Z</time>
<desc>lat.=42.886845, lon.=19.680557, Alt.=1717.547852m. Speed=9.720000m/h.</desc>
<speed>2.700000</speed>
</trkpt>
<trkpt lat="42.887455" lon="19.680849">
<ele>1698.9</ele>
<time>2012-04-30T17:03:00Z</time>
<desc>lat.=42.887455, lon.=19.680849, Alt.=1703.204102m. Speed=14.508000m/h.</desc>
<speed>4.030000</speed>
</trkpt>
<trkpt lat="42.887749" lon="19.681223">
<ele>1689.3</ele>
<time>2012-04-30T17:03:40Z</time>
<desc>lat.=42.887749, lon.=19.681223, Alt.=1681.672852m. Speed=3.168000m/h.</desc>
<speed>0.880000</speed>
</trkpt>
<trkpt lat="42.888046" lon="19.681042">
<ele>1690.5</ele>
<time>2012-04-30T17:04:25Z</time>
<desc>lat.=42.888046, lon.=19.681042, Alt.=1685.266602m. Speed=2.376000m/h.</desc>
<speed>0.660000</speed>
</trkpt>
<trkpt lat="42.888252" lon="19.681162">
<ele>1687.4</ele>
<time>2012-04-30T17:04:40Z</time>
<desc>lat.=42.888252, lon.=19.681162, Alt.=1685.672852m. Speed=8.964000m/h.</desc>
<speed>2.490000</speed>
</trkpt>
<trkpt lat="42.888615" lon="19.683264">
<ele>1678.2</ele>
<time>2012-04-30T17:05:30Z</time>
<desc>lat.=42.888615, lon.=19.683264, Alt.=1686.579102m. Speed=8.460000m/h.</desc>
<speed>2.350000</speed>
</trkpt>
<trkpt lat="42.888954" lon="19.683636">
<ele>1676.7</ele>
<time>2012-04-30T17:05:45Z</time>
<desc>lat.=42.888954, lon.=19.683636, Alt.=1680.485352m. Speed=9.864000m/h.</desc>
<speed>2.740000</speed>
</trkpt>
<trkpt lat="42.889183" lon="19.684231">
<ele>1673.7</ele>
<time>2012-04-30T17:06:05Z</time>
<desc>lat.=42.889183, lon.=19.684231, Alt.=1680.579102m. Speed=8.640000m/h.</desc>
<speed>2.400000</speed>
</trkpt>
<trkpt lat="42.889168" lon="19.684649">
<ele>1667.6</ele>
<time>2012-04-30T17:06:40Z</time>
<desc>lat.=42.889168, lon.=19.684649, Alt.=1677.016602m. Speed=0.396000m/h.</desc>
<speed>0.110000</speed>
</trkpt>
<trkpt lat="42.889641" lon="19.685392">
<ele>1658.7</ele>
<time>2012-04-30T17:09:25Z</time>
<desc>lat.=42.889641, lon.=19.685392, Alt.=1669.047852m. Speed=12.420000m/h.</desc>
<speed>3.450000</speed>
</trkpt>
<trkpt lat="42.890327" lon="19.685743">
<ele>1660.3</ele>
<time>2012-04-30T17:10:10Z</time>
<desc>lat.=42.890327, lon.=19.685743, Alt.=1667.297852m. Speed=7.596000m/h.</desc>
<speed>2.110000</speed>
</trkpt>
<trkpt lat="42.890835" lon="19.686487">
<ele>1655.2</ele>
<time>2012-04-30T17:10:40Z</time>
<desc>lat.=42.890835, lon.=19.686487, Alt.=1666.454102m. Speed=7.560000m/h.</desc>
<speed>2.100000</speed>
</trkpt>
<trkpt lat="42.891750" lon="19.687305">
<ele>1666.2</ele>
<time>2012-04-30T17:12:30Z</time>
<desc>lat.=42.891750, lon.=19.687305, Alt.=1670.735352m. Speed=0.000000m/h.</desc>
<speed>0.000000</speed>
</trkpt>
<trkpt lat="42.892250" lon="19.686615">
<ele>1665.3</ele>
<time>2012-04-30T17:13:50Z</time>
<desc>lat.=42.892250, lon.=19.686615, Alt.=1681.235352m. Speed=2.808000m/h.</desc>
<speed>0.780000</speed>
</trkpt>
<trkpt lat="42.892994" lon="19.686352">
<ele>1650.1</ele>
<time>2012-04-30T17:15:00Z</time>
<desc>lat.=42.892994, lon.=19.686352, Alt.=1665.891602m. Speed=23.472000m/h.</desc>
<speed>6.520000</speed>
</trkpt>
<trkpt lat="42.893711" lon="19.686806">
<ele>1652.3</ele>
<time>2012-04-30T17:16:00Z</time>
<desc>lat.=42.893711, lon.=19.686806, Alt.=1661.860352m. Speed=3.816000m/h.</desc>
<speed>1.060000</speed>
</trkpt>
<trkpt lat="42.894196" lon="19.686125">
<ele>1655.9</ele>
<time>2012-04-30T17:19:05Z</time>
<desc>lat.=42.894196, lon.=19.686125, Alt.=1664.954102m. Speed=10.296000m/h.</desc>
<speed>2.860000</speed>
</trkpt>
<trkpt lat="42.894218" lon="19.684872">
<ele>1653.4</ele>
<time>2012-04-30T17:19:45Z</time>
<desc>lat.=42.894218, lon.=19.684872, Alt.=1670.047852m. Speed=10.512000m/h.</desc>
<speed>2.920000</speed>
</trkpt>
<trkpt lat="42.894932" lon="19.683420">
<ele>1664.3</ele>
<time>2012-04-30T17:21:25Z</time>
<desc>lat.=42.894932, lon.=19.683420, Alt.=1683.422852m. Speed=2.340000m/h.</desc>
<speed>0.650000</speed>
</trkpt>
<trkpt lat="42.894928" lon="19.682693">
<ele>1670.3</ele>
<time>2012-04-30T17:22:20Z</time>
<desc>lat.=42.894928, lon.=19.682693, Alt.=1689.047852m. Speed=3.888000m/h.</desc>
<speed>1.080000</speed>
</trkpt>
<trkpt lat="42.895470" lon="19.681414">
<ele>1671.9</ele>
<time>2012-04-30T17:23:25Z</time>
<desc>lat.=42.895470, lon.=19.681414, Alt.=1685.422852m. Speed=9.612000m/h.</desc>
<speed>2.670000</speed>
</trkpt>
<trkpt lat="42.896023" lon="19.679213">
<ele>1673.7</ele>
<time>2012-04-30T17:24:50Z</time>
<desc>lat.=42.896023, lon.=19.679213, Alt.=1683.704102m. Speed=2.988000m/h.</desc>
<speed>0.830000</speed>
</trkpt>
<trkpt lat="42.896576" lon="19.678545">
<ele>1677.8</ele>
<time>2012-04-30T17:25:55Z</time>
<desc>lat.=42.896576, lon.=19.678545, Alt.=1683.579102m. Speed=3.132000m/h.</desc>
<speed>0.870000</speed>
</trkpt>
<trkpt lat="42.896660" lon="19.677668">
<ele>1682.9</ele>
<time>2012-04-30T17:27:00Z</time>
<desc>lat.=42.896660, lon.=19.677668, Alt.=1687.797852m. Speed=4.500000m/h.</desc>
<speed>1.250000</speed>
</trkpt>
<trkpt lat="42.897202" lon="19.675825">
<ele>1677.9</ele>
<time>2012-04-30T17:29:25Z</time>
<desc>lat.=42.897202, lon.=19.675825, Alt.=1693.922852m. Speed=0.360000m/h.</desc>
<speed>0.100000</speed>
</trkpt>
<trkpt lat="42.897160" lon="19.675480">
<ele>1675.4</ele>
<time>2012-04-30T17:30:00Z</time>
<desc>lat.=42.897160, lon.=19.675480, Alt.=1692.110352m. Speed=9.864000m/h.</desc>
<speed>2.740000</speed>
</trkpt>
<trkpt lat="42.897610" lon="19.674158">
<ele>1663.7</ele>
<time>2012-04-30T17:30:40Z</time>
<desc>lat.=42.897610, lon.=19.674158, Alt.=1679.079102m. Speed=6.552000m/h.</desc>
<speed>1.820000</speed>
</trkpt>
<trkpt lat="42.898170" lon="19.673378">
<ele>1662.1</ele>
<time>2012-04-30T17:32:05Z</time>
<desc>lat.=42.898170, lon.=19.673378, Alt.=1672.360352m. Speed=7.524000m/h.</desc>
<speed>2.090000</speed>
</trkpt>
<trkpt lat="42.898502" lon="19.672487">
<ele>1664.7</ele>
<time>2012-04-30T17:32:45Z</time>
<desc>lat.=42.898502, lon.=19.672487, Alt.=1675.204102m. Speed=6.912000m/h.</desc>
<speed>1.920000</speed>
</trkpt>
<trkpt lat="42.899296" lon="19.669754">
<ele>1684.8</ele>
<time>2012-04-30T17:36:50Z</time>
<desc>lat.=42.899296, lon.=19.669754, Alt.=1698.047852m. Speed=3.348000m/h.</desc>
<speed>0.930000</speed>
</trkpt>
<trkpt lat="42.899250" lon="19.669302">
<ele>1685.7</ele>
<time>2012-04-30T17:38:00Z</time>
<desc>lat.=42.899250, lon.=19.669302, Alt.=1702.016602m. Speed=1.188000m/h.</desc>
<speed>0.330000</speed>
</trkpt>
<trkpt lat="42.899590" lon="19.668753">
<ele>1702.6</ele>
<time>2012-04-30T17:39:30Z</time>
<desc>lat.=42.899590, lon.=19.668753, Alt.=1709.985352m. Speed=1.800000m/h.</desc>
<speed>0.500000</speed>
</trkpt>
<trkpt lat="42.899796" lon="19.668871">
<ele>1708.0</ele>
<time>2012-04-30T17:40:20Z</time>
<desc>lat.=42.899796, lon.=19.668871, Alt.=1714.454102m. Speed=1.044000m/h.</desc>
<speed>0.290000</speed>
</trkpt>
<trkpt lat="42.900204" lon="19.668055">
<ele>1705.4</ele>
<time>2012-04-30T17:40:55Z</time>
<desc>lat.=42.900204, lon.=19.668055, Alt.=1711.454102m. Speed=14.760000m/h.</desc>
<speed>4.100000</speed>
</trkpt>
<trkpt lat="42.900467" lon="19.667849">
<ele>1706.1</ele>
<time>2012-04-30T17:41:20Z</time>
<desc>lat.=42.900467, lon.=19.667849, Alt.=1707.516602m. Speed=3.276000m/h.</desc>
<speed>0.910000</speed>
</trkpt>
<trkpt lat="42.901119" lon="19.666100">
<ele>1687.6</ele>
<time>2012-04-30T17:44:05Z</time>
<desc>lat.=42.901119, lon.=19.666100, Alt.=1691.141602m. Speed=7.236000m/h.</desc>
<speed>2.010000</speed>
</trkpt>
<trkpt lat="42.901146" lon="19.665680">
<ele>1684.4</ele>
<time>2012-04-30T17:44:40Z</time>
<desc>lat.=42.901146, lon.=19.665680, Alt.=1687.235352m. Speed=5.652000m/h.</desc>
<speed>1.570000</speed>
</trkpt>
<trkpt lat="42.901356" lon="19.665697">
<ele>1688.7</ele>
<time>2012-04-30T17:45:30Z</time>
<desc>lat.=42.901356, lon.=19.665697, Alt.=1689.672852m. Speed=1.548000m/h.</desc>
<speed>0.430000</speed>
</trkpt>
<trkpt lat="42.901390" lon="19.665106">
<ele>1682.4</ele>
<time>2012-04-30T17:46:30Z</time>
<desc>lat.=42.901390, lon.=19.665106, Alt.=1697.516602m. Speed=0.468000m/h.</desc>
<speed>0.130000</speed>
</trkpt>
<trkpt lat="42.901520" lon="19.665215">
<ele>1687.9</ele>
<time>2012-04-30T17:47:20Z</time>
<desc>lat.=42.901520, lon.=19.665215, Alt.=1696.204102m. Speed=1.188000m/h.</desc>
<speed>0.330000</speed>
</trkpt>
<trkpt lat="42.901402" lon="19.664875">
<ele>1679.1</ele>
<time>2012-04-30T17:48:55Z</time>
<desc>lat.=42.901402, lon.=19.664875, Alt.=1689.704102m. Speed=0.864000m/h.</desc>
<speed>0.240000</speed>
</trkpt>
<trkpt lat="42.901604" lon="19.663277">
<ele>1646.9</ele>
<time>2012-04-30T17:52:45Z</time>
<desc>lat.=42.901604, lon.=19.663277, Alt.=1669.579102m. Speed=2.700000m/h.</desc>
<speed>0.750000</speed>
</trkpt>
<trkpt lat="42.901398" lon="19.663061">
<ele>1639.3</ele>
<time>2012-04-30T17:53:10Z</time>
<desc>lat.=42.901398, lon.=19.663061, Alt.=1664.610352m. Speed=0.720000m/h.</desc>
<speed>0.200000</speed>
</trkpt>
<trkpt lat="42.901958" lon="19.662174">
<ele>1622.8</ele>
<time>2012-04-30T17:54:10Z</time>
<desc>lat.=42.901958, lon.=19.662174, Alt.=1644.141602m. Speed=11.448000m/h.</desc>
<speed>3.180000</speed>
</trkpt>
<trkpt lat="42.902008" lon="19.660980">
<ele>1621.7</ele>
<time>2012-04-30T17:56:15Z</time>
<desc>lat.=42.902008, lon.=19.660980, Alt.=1631.641602m. Speed=1.584000m/h.</desc>
<speed>0.440000</speed>
</trkpt>
<trkpt lat="42.902821" lon="19.659985">
<ele>1605.9</ele>
<time>2012-04-30T17:57:55Z</time>
<desc>lat.=42.902821, lon.=19.659985, Alt.=1639.110352m. Speed=3.456000m/h.</desc>
<speed>0.960000</speed>
</trkpt>
<trkpt lat="42.903339" lon="19.658758">
<ele>1602.2</ele>
<time>2012-04-30T17:59:15Z</time>
<desc>lat.=42.903339, lon.=19.658758, Alt.=1640.610352m. Speed=1.908000m/h.</desc>
<speed>0.530000</speed>
</trkpt>
<trkpt lat="42.904053" lon="19.658493">
<ele>1591.3</ele>
<time>2012-04-30T18:00:50Z</time>
<desc>lat.=42.904053, lon.=19.658493, Alt.=1637.860352m. Speed=3.852000m/h.</desc>
<speed>1.070000</speed>
</trkpt>
<trkpt lat="42.904488" lon="19.657915">
<ele>1571.8</ele>
<time>2012-04-30T18:02:25Z</time>
<desc>lat.=42.904488, lon.=19.657915, Alt.=1622.266602m. Speed=2.268000m/h.</desc>
<speed>0.630000</speed>
</trkpt>
<trkpt lat="42.904892" lon="19.657846">
<ele>1557.8</ele>
<time>2012-04-30T18:04:10Z</time>
<desc>lat.=42.904892, lon.=19.657846, Alt.=1612.860352m. Speed=1.080000m/h.</desc>
<speed>0.300000</speed>
</trkpt>
<trkpt lat="42.905254" lon="19.657248">
<ele>1546.3</ele>
<time>2012-04-30T18:06:25Z</time>
<desc>lat.=42.905254, lon.=19.657248, Alt.=1608.672852m. Speed=0.504000m/h.</desc>
<speed>0.140000</speed>
</trkpt>
<trkpt lat="42.906342" lon="19.656940">
<ele>1514.8</ele>
<time>2012-04-30T18:09:40Z</time>
<desc>lat.=42.906342, lon.=19.656940, Alt.=1548.672852m. Speed=1.332000m/h.</desc>
<speed>0.370000</speed>
</trkpt>
<trkpt lat="42.906494" lon="19.656639">
<ele>1504.2</ele>
<time>2012-04-30T18:11:05Z</time>
<desc>lat.=42.906494, lon.=19.656639, Alt.=1527.766602m. Speed=0.180000m/h.</desc>
<speed>0.050000</speed>
</trkpt>
<trkpt lat="42.907127" lon="19.656225">
<ele>1488.7</ele>
<time>2012-04-30T18:11:55Z</time>
<desc>lat.=42.907127, lon.=19.656225, Alt.=1513.954102m. Speed=0.036000m/h.</desc>
<speed>0.010000</speed>
</trkpt>
<trkpt lat="42.908043" lon="19.656008">
<ele>1470.3</ele>
<time>2012-04-30T18:12:45Z</time>
<desc>lat.=42.908043, lon.=19.656008, Alt.=1499.641602m. Speed=4.356000m/h.</desc>
<speed>1.210000</speed>
</trkpt>
<trkpt lat="42.908195" lon="19.656075">
<ele>1467.5</ele>
<time>2012-04-30T18:12:55Z</time>
<desc>lat.=42.908195, lon.=19.656075, Alt.=1498.079102m. Speed=5.040000m/h.</desc>
<speed>1.400000</speed>
</trkpt>
<trkpt lat="42.908207" lon="19.656622">
<ele>1470.3</ele>
<time>2012-04-30T18:14:10Z</time>
<desc>lat.=42.908207, lon.=19.656622, Alt.=1482.516602m. Speed=8.424000m/h.</desc>
<speed>2.340000</speed>
</trkpt>
<trkpt lat="42.908607" lon="19.657967">
<ele>1474.2</ele>
<time>2012-04-30T18:15:40Z</time>
<desc>lat.=42.908607, lon.=19.657967, Alt.=1519.735352m. Speed=7.956000m/h.</desc>
<speed>2.210000</speed>
</trkpt>
<trkpt lat="42.909084" lon="19.657818">
<ele>1469.9</ele>
<time>2012-04-30T18:16:40Z</time>
<desc>lat.=42.909084, lon.=19.657818, Alt.=1542.047852m. Speed=2.988000m/h.</desc>
<speed>0.830000</speed>
</trkpt>
<trkpt lat="42.909698" lon="19.657946">
<ele>1483.9</ele>
<time>2012-04-30T18:17:55Z</time>
<desc>lat.=42.909698, lon.=19.657946, Alt.=1527.172852m. Speed=2.232000m/h.</desc>
<speed>0.620000</speed>
</trkpt>
<trkpt lat="42.910168" lon="19.657686">
<ele>1492.4</ele>
<time>2012-04-30T18:19:05Z</time>
<desc>lat.=42.910168, lon.=19.657686, Alt.=1540.454102m. Speed=1.512000m/h.</desc>
<speed>0.420000</speed>
</trkpt>
<trkpt lat="42.910625" lon="19.657890">
<ele>1507.6</ele>
<time>2012-04-30T18:22:00Z</time>
<desc>lat.=42.910625, lon.=19.657890, Alt.=1549.954102m. Speed=0.792000m/h.</desc>
<speed>0.220000</speed>
</trkpt>
<trkpt lat="42.910164" lon="19.657499">
<ele>1488.7</ele>
<time>2012-04-30T18:23:40Z</time>
<desc>lat.=42.910164, lon.=19.657499, Alt.=1518.422852m. Speed=2.772000m/h.</desc>
<speed>0.770000</speed>
</trkpt>
<trkpt lat="42.909683" lon="19.657825">
<ele>1482.4</ele>
<time>2012-04-30T18:25:00Z</time>
<desc>lat.=42.909683, lon.=19.657825, Alt.=1484.610352m. Speed=3.708000m/h.</desc>
<speed>1.030000</speed>
</trkpt>
<trkpt lat="42.909817" lon="19.657413">
<ele>1479.0</ele>
<time>2012-04-30T18:25:35Z</time>
<desc>lat.=42.909817, lon.=19.657413, Alt.=1474.766602m. Speed=4.644000m/h.</desc>
<speed>1.290000</speed>
</trkpt>
<trkpt lat="42.910179" lon="19.657030">
<ele>1480.3</ele>
<time>2012-04-30T18:26:05Z</time>
<desc>lat.=42.910179, lon.=19.657030, Alt.=1472.641602m. Speed=9.576000m/h.</desc>
<speed>2.660000</speed>
</trkpt>
<trkpt lat="42.912415" lon="19.654959">
<ele>1435.8</ele>
<time>2012-04-30T18:31:05Z</time>
<desc>lat.=42.912415, lon.=19.654959, Alt.=1442.391602m. Speed=2.304000m/h.</desc>
<speed>0.640000</speed>
</trkpt>
<trkpt lat="42.912769" lon="19.654930">
<ele>1427.4</ele>
<time>2012-04-30T18:31:45Z</time>
<desc>lat.=42.912769, lon.=19.654930, Alt.=1435.266602m. Speed=2.844000m/h.</desc>
<speed>0.790000</speed>
</trkpt>
<trkpt lat="42.913025" lon="19.655334">
<ele>1429.3</ele>
<time>2012-04-30T18:32:40Z</time>
<desc>lat.=42.913025, lon.=19.655334, Alt.=1429.297852m. Speed=4.824000m/h.</desc>
<speed>1.340000</speed>
</trkpt>
<trkpt lat="42.913216" lon="19.655369">
<ele>1427.2</ele>
<time>2012-04-30T18:32:50Z</time>
<desc>lat.=42.913216, lon.=19.655369, Alt.=1426.516602m. Speed=4.176000m/h.</desc>
<speed>1.160000</speed>
</trkpt>
<trkpt lat="42.914036" lon="19.654331">
<ele>1409.2</ele>
<time>2012-04-30T18:38:55Z</time>
<desc>lat.=42.914036, lon.=19.654331, Alt.=1413.079102m. Speed=0.144000m/h.</desc>
<speed>0.040000</speed>
</trkpt>
<trkpt lat="42.914188" lon="19.654375">
<ele>1412.7</ele>
<time>2012-04-30T18:39:25Z</time>
<desc>lat.=42.914188, lon.=19.654375, Alt.=1410.766602m. Speed=2.628000m/h.</desc>
<speed>0.730000</speed>
</trkpt>
<trkpt lat="42.914944" lon="19.652950">
<ele>1381.0</ele>
<time>2012-04-30T18:40:45Z</time>
<desc>lat.=42.914944, lon.=19.652950, Alt.=1405.641602m. Speed=6.048000m/h.</desc>
<speed>1.680000</speed>
</trkpt>
<trkpt lat="42.915306" lon="19.652674">
<ele>1378.4</ele>
<time>2012-04-30T18:41:10Z</time>
<desc>lat.=42.915306, lon.=19.652674, Alt.=1392.204102m. Speed=4.068000m/h.</desc>
<speed>1.130000</speed>
</trkpt>
<trkpt lat="42.915726" lon="19.651443">
<ele>1356.6</ele>
<time>2012-04-30T18:43:15Z</time>
<desc>lat.=42.915726, lon.=19.651443, Alt.=1353.235352m. Speed=5.148000m/h.</desc>
<speed>1.430000</speed>
</trkpt>
<trkpt lat="42.916241" lon="19.650692">
<ele>1355.3</ele>
<time>2012-04-30T18:43:55Z</time>
<desc>lat.=42.916241, lon.=19.650692, Alt.=1343.297852m. Speed=9.216000m/h.</desc>
<speed>2.560000</speed>
</trkpt>
<trkpt lat="42.916374" lon="19.650421">
<ele>1358.5</ele>
<time>2012-04-30T18:44:05Z</time>
<desc>lat.=42.916374, lon.=19.650421, Alt.=1337.579102m. Speed=3.132000m/h.</desc>
<speed>0.870000</speed>
</trkpt>
<trkpt lat="42.916279" lon="19.650291">
<ele>1351.3</ele>
<time>2012-04-30T18:44:30Z</time>
<desc>lat.=42.916279, lon.=19.650291, Alt.=1340.922852m. Speed=0.180000m/h.</desc>
<speed>0.050000</speed>
</trkpt>
<trkpt lat="42.916409" lon="19.650274">
<ele>1357.6</ele>
<time>2012-04-30T18:44:55Z</time>
<desc>lat.=42.916409, lon.=19.650274, Alt.=1338.672852m. Speed=5.040000m/h.</desc>
<speed>1.400000</speed>
</trkpt>
<trkpt lat="42.916790" lon="19.649305">
<ele>1340.8</ele>
<time>2012-04-30T18:46:10Z</time>
<desc>lat.=42.916790, lon.=19.649305, Alt.=1343.829102m. Speed=2.268000m/h.</desc>
<speed>0.630000</speed>
</trkpt>
<trkpt lat="42.917568" lon="19.648495">
<ele>1335.7</ele>
<time>2012-04-30T18:47:10Z</time>
<desc>lat.=42.917568, lon.=19.648495, Alt.=1341.547852m. Speed=4.068000m/h.</desc>
<speed>1.130000</speed>
</trkpt>
<trkpt lat="42.918621" lon="19.647863">
<ele>1337.6</ele>
<time>2012-04-30T18:49:00Z</time>
<desc>lat.=42.918621, lon.=19.647863, Alt.=1317.391602m. Speed=5.580000m/h.</desc>
<speed>1.550000</speed>
</trkpt>
<trkpt lat="42.919483" lon="19.647589">
<ele>1367.7</ele>
<time>2012-04-30T18:50:40Z</time>
<desc>lat.=42.919483, lon.=19.647589, Alt.=1326.047852m. Speed=4.500000m/h.</desc>
<speed>1.250000</speed>
</trkpt>
<trkpt lat="42.919846" lon="19.647236">
<ele>1367.4</ele>
<time>2012-04-30T18:51:30Z</time>
<desc>lat.=42.919846, lon.=19.647236, Alt.=1334.641602m. Speed=3.528000m/h.</desc>
<speed>0.980000</speed>
</trkpt>
<trkpt lat="42.919968" lon="19.647591">
<ele>1379.3</ele>
<time>2012-04-30T18:52:15Z</time>
<desc>lat.=42.919968, lon.=19.647591, Alt.=1339.547852m. Speed=5.364000m/h.</desc>
<speed>1.490000</speed>
</trkpt>
<trkpt lat="42.921589" lon="19.646198">
<ele>1380.6</ele>
<time>2012-04-30T18:55:05Z</time>
<desc>lat.=42.921589, lon.=19.646198, Alt.=1360.735352m. Speed=5.472000m/h.</desc>
<speed>1.520000</speed>
</trkpt>
<trkpt lat="42.921894" lon="19.645725">
<ele>1373.1</ele>
<time>2012-04-30T18:55:50Z</time>
<desc>lat.=42.921894, lon.=19.645725, Alt.=1362.641602m. Speed=4.968000m/h.</desc>
<speed>1.380000</speed>
</trkpt>
<trkpt lat="42.922215" lon="19.645615">
<ele>1378.6</ele>
<time>2012-04-30T18:56:10Z</time>
<desc>lat.=42.922215, lon.=19.645615, Alt.=1357.360352m. Speed=5.904000m/h.</desc>
<speed>1.640000</speed>
</trkpt>
<trkpt lat="42.922493" lon="19.645176">
<ele>1377.0</ele>
<time>2012-04-30T18:56:35Z</time>
<desc>lat.=42.922493, lon.=19.645176, Alt.=1352.922852m. Speed=4.680000m/h.</desc>
<speed>1.300000</speed>
</trkpt>
<trkpt lat="42.923367" lon="19.644657">
<ele>1382.9</ele>
<time>2012-04-30T19:01:30Z</time>
<desc>lat.=42.923367, lon.=19.644657, Alt.=1371.016602m. Speed=7.164000m/h.</desc>
<speed>1.990000</speed>
</trkpt>
<trkpt lat="42.924015" lon="19.643595">
<ele>1376.6</ele>
<time>2012-04-30T19:03:00Z</time>
<desc>lat.=42.924015, lon.=19.643595, Alt.=1374.047852m. Speed=5.868000m/h.</desc>
<speed>1.630000</speed>
</trkpt>
<trkpt lat="42.926487" lon="19.642740">
<ele>1389.3</ele>
<time>2012-04-30T19:06:45Z</time>
<desc>lat.=42.926487, lon.=19.642740, Alt.=1379.329102m. Speed=6.048000m/h.</desc>
<speed>1.680000</speed>
</trkpt>
<trkpt lat="42.927662" lon="19.641756">
<ele>1385.7</ele>
<time>2012-04-30T19:08:00Z</time>
<desc>lat.=42.927662, lon.=19.641756, Alt.=1386.704102m. Speed=11.304000m/h.</desc>
<speed>3.140000</speed>
</trkpt>
<trkpt lat="42.928642" lon="19.641233">
<ele>1382.9</ele>
<time>2012-04-30T19:08:40Z</time>
<desc>lat.=42.928642, lon.=19.641233, Alt.=1377.922852m. Speed=16.920000m/h.</desc>
<speed>4.700000</speed>
</trkpt>
<trkpt lat="42.929764" lon="19.640142">
<ele>1380.8</ele>
<time>2012-04-30T19:09:40Z</time>
<desc>lat.=42.929764, lon.=19.640142, Alt.=1377.641602m. Speed=0.144000m/h.</desc>
<speed>0.040000</speed>
</trkpt>
<trkpt lat="42.930679" lon="19.640312">
<ele>1385.2</ele>
<time>2012-04-30T19:11:35Z</time>
<desc>lat.=42.930679, lon.=19.640312, Alt.=1377.985352m. Speed=12.528000m/h.</desc>
<speed>3.480000</speed>
</trkpt>
<trkpt lat="42.931435" lon="19.640007">
<ele>1388.1</ele>
<time>2012-04-30T19:12:15Z</time>
<desc>lat.=42.931435, lon.=19.640007, Alt.=1383.516602m. Speed=6.768000m/h.</desc>
<speed>1.880000</speed>
</trkpt>
<trkpt lat="42.932148" lon="19.640110">
<ele>1395.2</ele>
<time>2012-04-30T19:12:50Z</time>
<desc>lat.=42.932148, lon.=19.640110, Alt.=1387.954102m. Speed=7.560000m/h.</desc>
<speed>2.100000</speed>
</trkpt>
<trkpt lat="42.933594" lon="19.639656">
<ele>1383.4</ele>
<time>2012-04-30T19:13:50Z</time>
<desc>lat.=42.933594, lon.=19.639656, Alt.=1377.516602m. Speed=13.716000m/h.</desc>
<speed>3.810000</speed>
</trkpt>
<trkpt lat="42.935104" lon="19.639549">
<ele>1371.5</ele>
<time>2012-04-30T19:14:50Z</time>
<desc>lat.=42.935104, lon.=19.639549, Alt.=1364.329102m. Speed=10.080000m/h.</desc>
<speed>2.800000</speed>
</trkpt>
<trkpt lat="42.936028" lon="19.638428">
<ele>1367.9</ele>
<time>2012-04-30T19:15:50Z</time>
<desc>lat.=42.936028, lon.=19.638428, Alt.=1357.672852m. Speed=8.028000m/h.</desc>
<speed>2.230000</speed>
</trkpt>
<trkpt lat="42.937271" lon="19.637358">
<ele>1377.5</ele>
<time>2012-04-30T19:17:45Z</time>
<desc>lat.=42.937271, lon.=19.637358, Alt.=1360.391602m. Speed=6.768000m/h.</desc>
<speed>1.880000</speed>
</trkpt>
<trkpt lat="42.937996" lon="19.636244">
<ele>1376.3</ele>
<time>2012-04-30T19:18:35Z</time>
<desc>lat.=42.937996, lon.=19.636244, Alt.=1379.547852m. Speed=11.844000m/h.</desc>
<speed>3.290000</speed>
</trkpt>
<trkpt lat="42.938545" lon="19.636118">
<ele>1380.5</ele>
<time>2012-04-30T19:18:55Z</time>
<desc>lat.=42.938545, lon.=19.636118, Alt.=1384.329102m. Speed=9.360000m/h.</desc>
<speed>2.600000</speed>
</trkpt>
<trkpt lat="42.939369" lon="19.636436">
<ele>1386.5</ele>
<time>2012-04-30T19:19:30Z</time>
<desc>lat.=42.939369, lon.=19.636436, Alt.=1396.266602m. Speed=9.720000m/h.</desc>
<speed>2.700000</speed>
</trkpt>
<trkpt lat="42.940475" lon="19.635550">
<ele>1374.6</ele>
<time>2012-04-30T19:20:15Z</time>
<desc>lat.=42.940475, lon.=19.635550, Alt.=1386.047852m. Speed=5.256000m/h.</desc>
<speed>1.460000</speed>
</trkpt>
<trkpt lat="42.941494" lon="19.635046">
<ele>1359.5</ele>
<time>2012-04-30T19:21:05Z</time>
<desc>lat.=42.941494, lon.=19.635046, Alt.=1358.454102m. Speed=7.812000m/h.</desc>
<speed>2.170000</speed>
</trkpt>
<trkpt lat="42.942440" lon="19.633942">
<ele>1356.7</ele>
<time>2012-04-30T19:22:35Z</time>
<desc>lat.=42.942440, lon.=19.633942, Alt.=1351.641602m. Speed=8.964000m/h.</desc>
<speed>2.490000</speed>
</trkpt>
<trkpt lat="42.943405" lon="19.632401">
<ele>1331.7</ele>
<time>2012-04-30T19:23:30Z</time>
<desc>lat.=42.943405, lon.=19.632401, Alt.=1340.829102m. Speed=12.060000m/h.</desc>
<speed>3.350000</speed>
</trkpt>
<trkpt lat="42.944633" lon="19.631058">
<ele>1320.8</ele>
<time>2012-04-30T19:24:40Z</time>
<desc>lat.=42.944633, lon.=19.631058, Alt.=1320.360352m. Speed=6.660000m/h.</desc>
<speed>1.850000</speed>
</trkpt>
<trkpt lat="42.944710" lon="19.630789">
<ele>1314.0</ele>
<time>2012-04-30T19:24:55Z</time>
<desc>lat.=42.944710, lon.=19.630789, Alt.=1313.860352m. Speed=9.108000m/h.</desc>
<speed>2.530000</speed>
</trkpt>
<trkpt lat="42.944519" lon="19.629076">
<ele>1307.3</ele>
<time>2012-04-30T19:27:20Z</time>
<desc>lat.=42.944519, lon.=19.629076, Alt.=1304.860352m. Speed=14.796000m/h.</desc>
<speed>4.110000</speed>
</trkpt>
<trkpt lat="42.944851" lon="19.628235">
<ele>1303.0</ele>
<time>2012-04-30T19:27:40Z</time>
<desc>lat.=42.944851, lon.=19.628235, Alt.=1296.485352m. Speed=13.680000m/h.</desc>
<speed>3.800000</speed>
</trkpt>
<trkpt lat="42.944782" lon="19.628063">
<ele>1299.8</ele>
<time>2012-04-30T19:27:45Z</time>
<desc>lat.=42.944782, lon.=19.628063, Alt.=1295.891602m. Speed=10.080000m/h.</desc>
<speed>2.800000</speed>
</trkpt>
<trkpt lat="42.944565" lon="19.628059">
<ele>1296.0</ele>
<time>2012-04-30T19:28:30Z</time>
<desc>lat.=42.944565, lon.=19.628059, Alt.=1295.204102m. Speed=6.840000m/h.</desc>
<speed>1.900000</speed>
</trkpt>
<trkpt lat="42.944061" lon="19.628590">
<ele>1283.7</ele>
<time>2012-04-30T19:28:50Z</time>
<desc>lat.=42.944061, lon.=19.628590, Alt.=1284.860352m. Speed=15.408000m/h.</desc>
<speed>4.280000</speed>
</trkpt>
<trkpt lat="42.943508" lon="19.629734">
<ele>1279.0</ele>
<time>2012-04-30T19:29:20Z</time>
<desc>lat.=42.943508, lon.=19.629734, Alt.=1271.766602m. Speed=17.028000m/h.</desc>
<speed>4.730000</speed>
</trkpt>
<trkpt lat="42.943123" lon="19.630194">
<ele>1275.1</ele>
<time>2012-04-30T19:30:50Z</time>
<desc>lat.=42.943123, lon.=19.630194, Alt.=1269.610352m. Speed=7.632000m/h.</desc>
<speed>2.120000</speed>
</trkpt>
<trkpt lat="42.942142" lon="19.630411">
<ele>1258.1</ele>
<time>2012-04-30T19:31:20Z</time>
<desc>lat.=42.942142, lon.=19.630411, Alt.=1265.829102m. Speed=5.904000m/h.</desc>
<speed>1.640000</speed>
</trkpt>
<trkpt lat="42.942337" lon="19.629780">
<ele>1247.6</ele>
<time>2012-04-30T19:31:40Z</time>
<desc>lat.=42.942337, lon.=19.629780, Alt.=1255.204102m. Speed=13.824000m/h.</desc>
<speed>3.840000</speed>
</trkpt>
<trkpt lat="42.943447" lon="19.627947">
<ele>1239.2</ele>
<time>2012-04-30T19:32:25Z</time>
<desc>lat.=42.943447, lon.=19.627947, Alt.=1234.766602m. Speed=13.644000m/h.</desc>
<speed>3.790000</speed>
</trkpt>
<trkpt lat="42.943451" lon="19.627333">
<ele>1227.3</ele>
<time>2012-04-30T19:32:35Z</time>
<desc>lat.=42.943451, lon.=19.627333, Alt.=1230.704102m. Speed=14.868000m/h.</desc>
<speed>4.130000</speed>
</trkpt>
<trkpt lat="42.944408" lon="19.625385">
<ele>1220.9</ele>
<time>2012-04-30T19:33:20Z</time>
<desc>lat.=42.944408, lon.=19.625385, Alt.=1214.266602m. Speed=13.932000m/h.</desc>
<speed>3.870000</speed>
</trkpt>
<trkpt lat="42.944633" lon="19.625126">
<ele>1220.6</ele>
<time>2012-04-30T19:33:30Z</time>
<desc>lat.=42.944633, lon.=19.625126, Alt.=1211.641602m. Speed=11.160000m/h.</desc>
<speed>3.100000</speed>
</trkpt>
<trkpt lat="42.945206" lon="19.625099">
<ele>1223.0</ele>
<time>2012-04-30T19:33:55Z</time>
<desc>lat.=42.945206, lon.=19.625099, Alt.=1204.860352m. Speed=6.264000m/h.</desc>
<speed>1.740000</speed>
</trkpt>
<trkpt lat="42.945889" lon="19.624628">
<ele>1186.5</ele>
<time>2012-04-30T19:34:20Z</time>
<desc>lat.=42.945889, lon.=19.624628, Alt.=1191.641602m. Speed=0.504000m/h.</desc>
<speed>0.140000</speed>
</trkpt>
<trkpt lat="42.946873" lon="19.625116">
<ele>1203.9</ele>
<time>2012-04-30T19:36:05Z</time>
<desc>lat.=42.946873, lon.=19.625116, Alt.=1194.610352m. Speed=3.960000m/h.</desc>
<speed>1.100000</speed>
</trkpt>
<trkpt lat="42.947498" lon="19.624912">
<ele>1191.1</ele>
<time>2012-04-30T19:36:30Z</time>
<desc>lat.=42.947498, lon.=19.624912, Alt.=1197.016602m. Speed=17.676001m/h.</desc>
<speed>4.910000</speed>
</trkpt>
<trkpt lat="42.948090" lon="19.623457">
<ele>1187.3</ele>
<time>2012-04-30T19:37:05Z</time>
<desc>lat.=42.948090, lon.=19.623457, Alt.=1195.454102m. Speed=14.328000m/h.</desc>
<speed>3.980000</speed>
</trkpt>
<trkpt lat="42.948662" lon="19.622755">
<ele>1182.1</ele>
<time>2012-04-30T19:37:25Z</time>
<desc>lat.=42.948662, lon.=19.622755, Alt.=1188.235352m. Speed=16.524000m/h.</desc>
<speed>4.590000</speed>
</trkpt>
<trkpt lat="42.948837" lon="19.621696">
<ele>1177.8</ele>
<time>2012-04-30T19:37:40Z</time>
<desc>lat.=42.948837, lon.=19.621696, Alt.=1179.297852m. Speed=18.648001m/h.</desc>
<speed>5.180000</speed>
</trkpt>
<trkpt lat="42.948788" lon="19.620247">
<ele>1167.8</ele>
<time>2012-04-30T19:38:25Z</time>
<desc>lat.=42.948788, lon.=19.620247, Alt.=1166.141602m. Speed=9.864000m/h.</desc>
<speed>2.740000</speed>
</trkpt>
<trkpt lat="42.948116" lon="19.619459">
<ele>1154.4</ele>
<time>2012-04-30T19:38:50Z</time>
<desc>lat.=42.948116, lon.=19.619459, Alt.=1155.860352m. Speed=12.528000m/h.</desc>
<speed>3.480000</speed>
</trkpt>
<trkpt lat="42.947582" lon="19.619116">
<ele>1136.6</ele>
<time>2012-04-30T19:39:10Z</time>
<desc>lat.=42.947582, lon.=19.619116, Alt.=1144.547852m. Speed=6.876000m/h.</desc>
<speed>1.910000</speed>
</trkpt>
<trkpt lat="42.947971" lon="19.618784">
<ele>1130.0</ele>
<time>2012-04-30T19:40:55Z</time>
<desc>lat.=42.947971, lon.=19.618784, Alt.=1136.172852m. Speed=8.784000m/h.</desc>
<speed>2.440000</speed>
</trkpt>
<trkpt lat="42.947132" lon="19.618032">
<ele>1112.1</ele>
<time>2012-04-30T19:41:30Z</time>
<desc>lat.=42.947132, lon.=19.618032, Alt.=1123.360352m. Speed=9.468000m/h.</desc>
<speed>2.630000</speed>
</trkpt>
<trkpt lat="42.947308" lon="19.617678">
<ele>1110.3</ele>
<time>2012-04-30T19:41:45Z</time>
<desc>lat.=42.947308, lon.=19.617678, Alt.=1116.672852m. Speed=11.628000m/h.</desc>
<speed>3.230000</speed>
</trkpt>
<trkpt lat="42.947227" lon="19.616898">
<ele>1107.4</ele>
<time>2012-04-30T19:42:05Z</time>
<desc>lat.=42.947227, lon.=19.616898, Alt.=1110.797852m. Speed=12.096000m/h.</desc>
<speed>3.360000</speed>
</trkpt>
<trkpt lat="42.946899" lon="19.616016">
<ele>1099.4</ele>
<time>2012-04-30T19:42:30Z</time>
<desc>lat.=42.946899, lon.=19.616016, Alt.=1100.297852m. Speed=10.476000m/h.</desc>
<speed>2.910000</speed>
</trkpt>
<trkpt lat="42.946873" lon="19.615152">
<ele>1093.1</ele>
<time>2012-04-30T19:42:50Z</time>
<desc>lat.=42.946873, lon.=19.615152, Alt.=1093.360352m. Speed=15.444000m/h.</desc>
<speed>4.290000</speed>
</trkpt>
<trkpt lat="42.946510" lon="19.613943">
<ele>1084.3</ele>
<time>2012-04-30T19:43:15Z</time>
<desc>lat.=42.946510, lon.=19.613943, Alt.=1091.047852m. Speed=14.112000m/h.</desc>
<speed>3.920000</speed>
</trkpt>
<trkpt lat="42.946716" lon="19.612860">
<ele>1094.4</ele>
<time>2012-04-30T19:44:05Z</time>
<desc>lat.=42.946716, lon.=19.612860, Alt.=1102.579102m. Speed=6.480000m/h.</desc>
<speed>1.800000</speed>
</trkpt>
<trkpt lat="42.947937" lon="19.611246">
<ele>1102.1</ele>
<time>2012-04-30T19:45:35Z</time>
<desc>lat.=42.947937, lon.=19.611246, Alt.=1101.579102m. Speed=12.348000m/h.</desc>
<speed>3.430000</speed>
</trkpt>
<trkpt lat="42.948681" lon="19.610615">
<ele>1105.5</ele>
<time>2012-04-30T19:46:05Z</time>
<desc>lat.=42.948681, lon.=19.610615, Alt.=1104.954102m. Speed=9.180000m/h.</desc>
<speed>2.550000</speed>
</trkpt>
<trkpt lat="42.948593" lon="19.610052">
<ele>1113.7</ele>
<time>2012-04-30T19:46:25Z</time>
<desc>lat.=42.948593, lon.=19.610052, Alt.=1109.985352m. Speed=14.256000m/h.</desc>
<speed>3.960000</speed>
</trkpt>
<trkpt lat="42.948788" lon="19.607924">
<ele>1129.7</ele>
<time>2012-04-30T19:47:25Z</time>
<desc>lat.=42.948788, lon.=19.607924, Alt.=1130.485352m. Speed=3.960000m/h.</desc>
<speed>1.100000</speed>
</trkpt>
<trkpt lat="42.949432" lon="19.606491">
<ele>1110.9</ele>
<time>2012-04-30T19:48:00Z</time>
<desc>lat.=42.949432, lon.=19.606491, Alt.=1137.360352m. Speed=9.756000m/h.</desc>
<speed>2.710000</speed>
</trkpt>
<trkpt lat="42.946301" lon="19.601755">
<ele>1110.1</ele>
<time>2012-04-30T19:52:50Z</time>
<desc>lat.=42.946301, lon.=19.601755, Alt.=1114.016602m. Speed=12.132000m/h.</desc>
<speed>3.370000</speed>
</trkpt>
<trkpt lat="42.946529" lon="19.601614">
<ele>1104.4</ele>
<time>2012-04-30T19:53:00Z</time>
<desc>lat.=42.946529, lon.=19.601614, Alt.=1109.891602m. Speed=15.840000m/h.</desc>
<speed>4.400000</speed>
</trkpt>
<trkpt lat="42.947433" lon="19.601963">
<ele>1103.6</ele>
<time>2012-04-30T19:53:20Z</time>
<desc>lat.=42.947433, lon.=19.601963, Alt.=1101.485352m. Speed=20.591999m/h.</desc>
<speed>5.720000</speed>
</trkpt>
<trkpt lat="42.947823" lon="19.602272">
<ele>1102.4</ele>
<time>2012-04-30T19:53:30Z</time>
<desc>lat.=42.947823, lon.=19.602272, Alt.=1096.235352m. Speed=15.912000m/h.</desc>
<speed>4.420000</speed>
</trkpt>
<trkpt lat="42.948166" lon="19.603006">
<ele>1092.7</ele>
<time>2012-04-30T19:53:45Z</time>
<desc>lat.=42.948166, lon.=19.603006, Alt.=1091.016602m. Speed=15.516000m/h.</desc>
<speed>4.310000</speed>
</trkpt>
<trkpt lat="42.949883" lon="19.604395">
<ele>1076.1</ele>
<time>2012-04-30T19:54:40Z</time>
<desc>lat.=42.949883, lon.=19.604395, Alt.=1076.641602m. Speed=17.784000m/h.</desc>
<speed>4.940000</speed>
</trkpt>
<trkpt lat="42.951534" lon="19.604721">
<ele>1063.6</ele>
<time>2012-04-30T19:55:15Z</time>
<desc>lat.=42.951534, lon.=19.604721, Alt.=1061.204102m. Speed=17.892000m/h.</desc>
<speed>4.970000</speed>
</trkpt>
<trkpt lat="42.951931" lon="19.606052">
<ele>1056.4</ele>
<time>2012-04-30T19:55:45Z</time>
<desc>lat.=42.951931, lon.=19.606052, Alt.=1055.860352m. Speed=10.836000m/h.</desc>
<speed>3.010000</speed>
</trkpt>
<trkpt lat="42.952263" lon="19.603792">
<ele>1041.1</ele>
<time>2012-04-30T19:56:25Z</time>
<desc>lat.=42.952263, lon.=19.603792, Alt.=1050.641602m. Speed=11.340000m/h.</desc>
<speed>3.150000</speed>
</trkpt>
<trkpt lat="42.952175" lon="19.603329">
<ele>1036.4</ele>
<time>2012-04-30T19:56:40Z</time>
<desc>lat.=42.952175, lon.=19.603329, Alt.=1046.860352m. Speed=14.040000m/h.</desc>
<speed>3.900000</speed>
</trkpt>
<trkpt lat="42.952457" lon="19.602621">
<ele>1025.7</ele>
<time>2012-04-30T19:56:55Z</time>
<desc>lat.=42.952457, lon.=19.602621, Alt.=1041.485352m. Speed=15.876000m/h.</desc>
<speed>4.410000</speed>
</trkpt>
<trkpt lat="42.952908" lon="19.602053">
<ele>1028.1</ele>
<time>2012-04-30T19:57:10Z</time>
<desc>lat.=42.952908, lon.=19.602053, Alt.=1038.047852m. Speed=15.660000m/h.</desc>
<speed>4.350000</speed>
</trkpt>
<trkpt lat="42.953323" lon="19.602051">
<ele>1025.7</ele>
<time>2012-04-30T19:57:25Z</time>
<desc>lat.=42.953323, lon.=19.602051, Alt.=1026.985352m. Speed=11.304000m/h.</desc>
<speed>3.140000</speed>
</trkpt>
<trkpt lat="42.953274" lon="19.601574">
<ele>1011.0</ele>
<time>2012-04-30T19:57:35Z</time>
<desc>lat.=42.953274, lon.=19.601574, Alt.=1024.579102m. Speed=12.420000m/h.</desc>
<speed>3.450000</speed>
</trkpt>
<trkpt lat="42.953613" lon="19.601009">
<ele>1001.6</ele>
<time>2012-04-30T19:57:50Z</time>
<desc>lat.=42.953613, lon.=19.601009, Alt.=1019.352051m. Speed=19.332001m/h.</desc>
<speed>5.370000</speed>
</trkpt>
<trkpt lat="42.953724" lon="19.600277">
<ele>998.4</ele>
<time>2012-04-30T19:58:00Z</time>
<desc>lat.=42.953724, lon.=19.600277, Alt.=1014.117676m. Speed=16.775999m/h.</desc>
<speed>4.660000</speed>
</trkpt>
<trkpt lat="42.955391" lon="19.596479">
<ele>963.1</ele>
<time>2012-04-30T19:59:30Z</time>
<desc>lat.=42.955391, lon.=19.596479, Alt.=977.508301m. Speed=14.436000m/h.</desc>
<speed>4.010000</speed>
</trkpt>
<trkpt lat="42.956562" lon="19.594868">
<ele>942.2</ele>
<time>2012-04-30T20:00:40Z</time>
<desc>lat.=42.956562, lon.=19.594868, Alt.=966.711426m. Speed=14.580000m/h.</desc>
<speed>4.050000</speed>
</trkpt>
<trkpt lat="42.956944" lon="19.594898">
<ele>942.7</ele>
<time>2012-04-30T20:00:50Z</time>
<desc>lat.=42.956944, lon.=19.594898, Alt.=961.836426m. Speed=13.860000m/h.</desc>
<speed>3.850000</speed>
</trkpt>
<trkpt lat="42.957123" lon="19.594725">
<ele>932.7</ele>
<time>2012-04-30T20:00:55Z</time>
<desc>lat.=42.957123, lon.=19.594725, Alt.=955.945801m. Speed=16.164000m/h.</desc>
<speed>4.490000</speed>
</trkpt>
<trkpt lat="42.957088" lon="19.594524">
<ele>927.5</ele>
<time>2012-04-30T20:01:00Z</time>
<desc>lat.=42.957088, lon.=19.594524, Alt.=945.414551m. Speed=14.580000m/h.</desc>
<speed>4.050000</speed>
</trkpt>
<trkpt lat="42.955891" lon="19.594383">
<ele>905.9</ele>
<time>2012-04-30T20:01:25Z</time>
<desc>lat.=42.955891, lon.=19.594383, Alt.=925.383301m. Speed=12.060000m/h.</desc>
<speed>3.350000</speed>
</trkpt>
<trkpt lat="42.955963" lon="19.593493">
<ele>896.6</ele>
<time>2012-04-30T20:01:45Z</time>
<desc>lat.=42.955963, lon.=19.593493, Alt.=913.117676m. Speed=21.348000m/h.</desc>
<speed>5.930000</speed>
</trkpt>
<trkpt lat="42.956486" lon="19.591284">
<ele>872.1</ele>
<time>2012-04-30T20:02:25Z</time>
<desc>lat.=42.956486, lon.=19.591284, Alt.=886.820801m. Speed=13.392000m/h.</desc>
<speed>3.720000</speed>
</trkpt>
<trkpt lat="42.958126" lon="19.590088">
<ele>855.5</ele>
<time>2012-04-30T20:03:15Z</time>
<desc>lat.=42.958126, lon.=19.590088, Alt.=861.961426m. Speed=5.256000m/h.</desc>
<speed>1.460000</speed>
</trkpt>
<trkpt lat="42.958572" lon="19.590166">
<ele>854.0</ele>
<time>2012-04-30T20:03:50Z</time>
<desc>lat.=42.958572, lon.=19.590166, Alt.=859.055176m. Speed=13.284000m/h.</desc>
<speed>3.690000</speed>
</trkpt>
<trkpt lat="42.959190" lon="19.590900">
<ele>856.3</ele>
<time>2012-04-30T20:04:15Z</time>
<desc>lat.=42.959190, lon.=19.590900, Alt.=859.820801m. Speed=14.148000m/h.</desc>
<speed>3.930000</speed>
</trkpt>
<trkpt lat="42.959435" lon="19.592226">
<ele>856.9</ele>
<time>2012-04-30T20:04:40Z</time>
<desc>lat.=42.959435, lon.=19.592226, Alt.=864.773926m. Speed=15.048000m/h.</desc>
<speed>4.180000</speed>
</trkpt>
<trkpt lat="42.959240" lon="19.593445">
<ele>858.2</ele>
<time>2012-04-30T20:05:00Z</time>
<desc>lat.=42.959240, lon.=19.593445, Alt.=864.867676m. Speed=19.332001m/h.</desc>
<speed>5.370000</speed>
</trkpt>
<trkpt lat="42.959358" lon="19.594660">
<ele>858.3</ele>
<time>2012-04-30T20:05:20Z</time>
<desc>lat.=42.959358, lon.=19.594660, Alt.=862.148926m. Speed=26.028000m/h.</desc>
<speed>7.230000</speed>
</trkpt>
<trkpt lat="42.959278" lon="19.595612">
<ele>860.0</ele>
<time>2012-04-30T20:05:30Z</time>
<desc>lat.=42.959278, lon.=19.595612, Alt.=855.852051m. Speed=28.728001m/h.</desc>
<speed>7.980000</speed>
</trkpt>
<trkpt lat="42.958794" lon="19.597466">
<ele>858.3</ele>
<time>2012-04-30T20:05:50Z</time>
<desc>lat.=42.958794, lon.=19.597466, Alt.=844.398926m. Speed=35.063999m/h.</desc>
<speed>9.740000</speed>
</trkpt>
<trkpt lat="42.958839" lon="19.598366">
<ele>845.3</ele>
<time>2012-04-30T20:06:00Z</time>
<desc>lat.=42.958839, lon.=19.598366, Alt.=841.930176m. Speed=17.568001m/h.</desc>
<speed>4.880000</speed>
</trkpt>
<trkpt lat="42.959034" lon="19.598463">
<ele>838.6</ele>
<time>2012-04-30T20:06:05Z</time>
<desc>lat.=42.959034, lon.=19.598463, Alt.=841.633301m. Speed=11.448000m/h.</desc>
<speed>3.180000</speed>
</trkpt>
<trkpt lat="42.959396" lon="19.597851">
<ele>834.6</ele>
<time>2012-04-30T20:06:25Z</time>
<desc>lat.=42.959396, lon.=19.597851, Alt.=843.195801m. Speed=15.624000m/h.</desc>
<speed>4.340000</speed>
</trkpt>
<trkpt lat="42.960190" lon="19.595499">
<ele>829.3</ele>
<time>2012-04-30T20:06:55Z</time>
<desc>lat.=42.960190, lon.=19.595499, Alt.=839.492676m. Speed=29.340000m/h.</desc>
<speed>8.150000</speed>
</trkpt>
<trkpt lat="42.960754" lon="19.593067">
<ele>827.5</ele>
<time>2012-04-30T20:07:25Z</time>
<desc>lat.=42.960754, lon.=19.593067, Alt.=838.508301m. Speed=18.431999m/h.</desc>
<speed>5.120000</speed>
</trkpt>
<trkpt lat="42.960808" lon="19.592108">
<ele>823.0</ele>
<time>2012-04-30T20:07:40Z</time>
<desc>lat.=42.960808, lon.=19.592108, Alt.=835.758301m. Speed=18.719999m/h.</desc>
<speed>5.200000</speed>
</trkpt>
<trkpt lat="42.960316" lon="19.589760">
<ele>817.2</ele>
<time>2012-04-30T20:08:20Z</time>
<desc>lat.=42.960316, lon.=19.589760, Alt.=821.727051m. Speed=20.556000m/h.</desc>
<speed>5.710000</speed>
</trkpt>
<trkpt lat="42.960190" lon="19.587986">
<ele>814.0</ele>
<time>2012-04-30T20:08:45Z</time>
<desc>lat.=42.960190, lon.=19.587986, Alt.=819.336426m. Speed=20.340000m/h.</desc>
<speed>5.650000</speed>
</trkpt>
<trkpt lat="42.959499" lon="19.586329">
<ele>810.4</ele>
<time>2012-04-30T20:10:35Z</time>
<desc>lat.=42.959499, lon.=19.586329, Alt.=817.367676m. Speed=0.144000m/h.</desc>
<speed>0.040000</speed>
</trkpt>
<trkpt lat="42.960125" lon="19.584705">
<ele>809.2</ele>
<time>2012-04-30T20:11:40Z</time>
<desc>lat.=42.960125, lon.=19.584705, Alt.=819.461426m. Speed=18.648001m/h.</desc>
<speed>5.180000</speed>
</trkpt>
<trkpt lat="42.960358" lon="19.581425">
<ele>809.1</ele>
<time>2012-04-30T20:12:25Z</time>
<desc>lat.=42.960358, lon.=19.581425, Alt.=820.586426m. Speed=17.892000m/h.</desc>
<speed>4.970000</speed>
</trkpt>
<trkpt lat="42.959644" lon="19.579548">
<ele>809.0</ele>
<time>2012-04-30T20:12:55Z</time>
<desc>lat.=42.959644, lon.=19.579548, Alt.=813.133301m. Speed=22.896000m/h.</desc>
<speed>6.360000</speed>
</trkpt>
<trkpt lat="42.959766" lon="19.578264">
<ele>808.5</ele>
<time>2012-04-30T20:13:15Z</time>
<desc>lat.=42.959766, lon.=19.578264, Alt.=815.242676m. Speed=12.816000m/h.</desc>
<speed>3.560000</speed>
</trkpt>
<trkpt lat="42.958588" lon="19.577944">
<ele>809.4</ele>
<time>2012-04-30T20:14:00Z</time>
<desc>lat.=42.958588, lon.=19.577944, Alt.=818.211426m. Speed=10.188000m/h.</desc>
<speed>2.830000</speed>
</trkpt>
<trkpt lat="42.958408" lon="19.578255">
<ele>808.8</ele>
<time>2012-04-30T20:15:45Z</time>
<desc>lat.=42.958408, lon.=19.578255, Alt.=815.023926m. Speed=0.036000m/h.</desc>
<speed>0.010000</speed>
</trkpt>
</trkseg>
</trk>
</gpx>